<?xml version="1.0" encoding="UTF-8" standalone="no" ?>
<gpx xmlns="http://www.topografix.com/GPX/1/1" xmlns:xsi="http://www.w3.org/2001/XMLSchema-instance" xsi:schemaLocation="http://www.topografix.com/GPX/1/1 http://www.topografix.com/GPX/1/1/gpx.xsd" version="1.1" creator="VisuGPX - https://www.visugpx.com">
  <metadata>
    <name>avec julien</name>
    <desc><![CDATA[petite promenade avec julien jeudi il est rentré mort tout rouge]]></desc>
  </metadata>
  <trk>
    <name><![CDATA[ONmove 200 - 25/05/2017]]></name>
    <trkseg>
      <trkpt lat="44.49179" lon="6.2157">
        <ele>1643</ele>
        <time>2017-05-25T17:39:10Z</time>
      </trkpt>
      <trkpt lat="44.49177" lon="6.2157">
        <ele>1643</ele>
        <time>2017-05-25T17:40:17Z</time>
      </trkpt>
      <trkpt lat="44.49165" lon="6.21565">
        <ele>1640</ele>
        <time>2017-05-25T17:40:58Z</time>
      </trkpt>
      <trkpt lat="44.49248" lon="6.21617">
        <ele>1662</ele>
        <time>2017-05-25T17:41:23Z</time>
      </trkpt>
      <trkpt lat="44.49363" lon="6.2168">
        <ele>1690</ele>
        <time>2017-05-25T17:41:40Z</time>
      </trkpt>
      <trkpt lat="44.49415" lon="6.21725">
        <ele>1707.7</ele>
        <time>2017-05-25T17:41:50Z</time>
      </trkpt>
      <trkpt lat="44.49547" lon="6.21813">
        <ele>1718</ele>
        <time>2017-05-25T17:42:11Z</time>
      </trkpt>
      <trkpt lat="44.49604" lon="6.22085">
        <ele>1716</ele>
        <time>2017-05-25T17:42:32Z</time>
      </trkpt>
      <trkpt lat="44.49605" lon="6.22158">
        <ele>1712</ele>
        <time>2017-05-25T17:42:48Z</time>
      </trkpt>
      <trkpt lat="44.49606" lon="6.22158">
        <ele>1711</ele>
        <time>2017-05-25T17:43:18Z</time>
      </trkpt>
      <trkpt lat="44.49612" lon="6.22177">
        <ele>1709</ele>
        <time>2017-05-25T17:43:58Z</time>
      </trkpt>
      <trkpt lat="44.49615" lon="6.22173">
        <ele>1709</ele>
        <time>2017-05-25T17:44:23Z</time>
      </trkpt>
      <trkpt lat="44.49614" lon="6.22177">
        <ele>1709</ele>
        <time>2017-05-25T17:44:54Z</time>
      </trkpt>
      <trkpt lat="44.49614" lon="6.22176">
        <ele>1709</ele>
        <time>2017-05-25T17:46:12Z</time>
      </trkpt>
      <trkpt lat="44.49613" lon="6.22177">
        <ele>1709</ele>
        <time>2017-05-25T17:46:53Z</time>
      </trkpt>
      <trkpt lat="44.4961" lon="6.2217">
        <ele>1710</ele>
        <time>2017-05-25T17:47:18Z</time>
      </trkpt>
      <trkpt lat="44.49608" lon="6.22157">
        <ele>1711</ele>
        <time>2017-05-25T17:47:49Z</time>
      </trkpt>
      <trkpt lat="44.49607" lon="6.22158">
        <ele>1711</ele>
        <time>2017-05-25T17:48:19Z</time>
      </trkpt>
      <trkpt lat="44.49605" lon="6.22157">
        <ele>1712</ele>
        <time>2017-05-25T17:49:20Z</time>
      </trkpt>
      <trkpt lat="44.49605" lon="6.22154">
        <ele>1712</ele>
        <time>2017-05-25T17:50:15Z</time>
      </trkpt>
      <trkpt lat="44.49603" lon="6.22148">
        <ele>1712</ele>
        <time>2017-05-25T17:50:30Z</time>
      </trkpt>
      <trkpt lat="44.49592" lon="6.22022">
        <ele>1716</ele>
        <time>2017-05-25T17:50:40Z</time>
      </trkpt>
      <trkpt lat="44.49557" lon="6.21828">
        <ele>1718</ele>
        <time>2017-05-25T17:51:00Z</time>
      </trkpt>
      <trkpt lat="44.49611" lon="6.21808">
        <ele>1717</ele>
        <time>2017-05-25T17:51:10Z</time>
      </trkpt>
      <trkpt lat="44.5005" lon="6.21678">
        <ele>1649</ele>
        <time>2017-05-25T17:52:09Z</time>
      </trkpt>
      <trkpt lat="44.50244" lon="6.21581">
        <ele>1624</ele>
        <time>2017-05-25T17:52:35Z</time>
      </trkpt>
      <trkpt lat="44.5034" lon="6.21651">
        <ele>1613</ele>
        <time>2017-05-25T17:53:30Z</time>
      </trkpt>
      <trkpt lat="44.5063" lon="6.21802">
        <ele>1598</ele>
        <time>2017-05-25T17:53:55Z</time>
      </trkpt>
      <trkpt lat="44.50791" lon="6.2175">
        <ele>1617</ele>
        <time>2017-05-25T17:54:10Z</time>
      </trkpt>
      <trkpt lat="44.50891" lon="6.21919">
        <ele>1597</ele>
        <time>2017-05-25T17:54:35Z</time>
      </trkpt>
      <trkpt lat="44.50901" lon="6.22161">
        <ele>1572</ele>
        <time>2017-05-25T17:55:28Z</time>
      </trkpt>
      <trkpt lat="44.50935" lon="6.22261">
        <ele>1546</ele>
        <time>2017-05-25T17:55:49Z</time>
      </trkpt>
      <trkpt lat="44.50912" lon="6.22503">
        <ele>1513</ele>
        <time>2017-05-25T17:56:31Z</time>
      </trkpt>
      <trkpt lat="44.5103" lon="6.22694">
        <ele>1470</ele>
        <time>2017-05-25T17:57:09Z</time>
      </trkpt>
      <trkpt lat="44.51024" lon="6.22922">
        <ele>1451</ele>
        <time>2017-05-25T17:57:25Z</time>
      </trkpt>
      <trkpt lat="44.50894" lon="6.23025">
        <ele>1429</ele>
        <time>2017-05-25T17:57:40Z</time>
      </trkpt>
      <trkpt lat="44.51212" lon="6.22928">
        <ele>1403</ele>
        <time>2017-05-25T17:58:17Z</time>
      </trkpt>
      <trkpt lat="44.51358" lon="6.22989">
        <ele>1384</ele>
        <time>2017-05-25T17:58:37Z</time>
      </trkpt>
      <trkpt lat="44.51525" lon="6.2242">
        <ele>1382</ele>
        <time>2017-05-25T17:59:12Z</time>
      </trkpt>
      <trkpt lat="44.51364" lon="6.22124">
        <ele>1410</ele>
        <time>2017-05-25T17:59:38Z</time>
      </trkpt>
      <trkpt lat="44.51729" lon="6.21661">
        <ele>1385</ele>
        <time>2017-05-25T18:00:20Z</time>
      </trkpt>
      <trkpt lat="44.5166" lon="6.217">
        <ele>1407</ele>
        <time>2017-05-25T18:00:51Z</time>
      </trkpt>
      <trkpt lat="44.51443" lon="6.21609">
        <ele>1456</ele>
        <time>2017-05-25T18:01:17Z</time>
      </trkpt>
      <trkpt lat="44.5136" lon="6.21589">
        <ele>1477</ele>
        <time>2017-05-25T18:01:48Z</time>
      </trkpt>
      <trkpt lat="44.51338" lon="6.21542">
        <ele>1477</ele>
        <time>2017-05-25T18:01:58Z</time>
      </trkpt>
      <trkpt lat="44.51347" lon="6.21345">
        <ele>1496</ele>
        <time>2017-05-25T18:02:29Z</time>
      </trkpt>
      <trkpt lat="44.51353" lon="6.21359">
        <ele>1491</ele>
        <time>2017-05-25T18:03:04Z</time>
      </trkpt>
      <trkpt lat="44.51366" lon="6.21408">
        <ele>1478</ele>
        <time>2017-05-25T18:03:44Z</time>
      </trkpt>
      <trkpt lat="44.51358" lon="6.21575">
        <ele>1475</ele>
        <time>2017-05-25T18:04:05Z</time>
      </trkpt>
      <trkpt lat="44.5166" lon="6.21699">
        <ele>1407</ele>
        <time>2017-05-25T18:04:41Z</time>
      </trkpt>
      <trkpt lat="44.51721" lon="6.21689">
        <ele>1389</ele>
        <time>2017-05-25T18:04:57Z</time>
      </trkpt>
      <trkpt lat="44.51669" lon="6.21854">
        <ele>1400</ele>
        <time>2017-05-25T18:05:12Z</time>
      </trkpt>
      <trkpt lat="44.51341" lon="6.22206">
        <ele>1400</ele>
        <time>2017-05-25T18:05:48Z</time>
      </trkpt>
      <trkpt lat="44.51371" lon="6.22964">
        <ele>1384</ele>
        <time>2017-05-25T18:06:34Z</time>
      </trkpt>
      <trkpt lat="44.51247" lon="6.23149">
        <ele>1394</ele>
        <time>2017-05-25T18:06:59Z</time>
      </trkpt>
      <trkpt lat="44.51065" lon="6.2333">
        <ele>1351</ele>
        <time>2017-05-25T18:07:25Z</time>
      </trkpt>
      <trkpt lat="44.51044" lon="6.23195">
        <ele>1357</ele>
        <time>2017-05-25T18:07:42Z</time>
      </trkpt>
      <trkpt lat="44.51012" lon="6.23527">
        <ele>1310</ele>
        <time>2017-05-25T18:08:08Z</time>
      </trkpt>
      <trkpt lat="44.50979" lon="6.23528">
        <ele>1294</ele>
        <time>2017-05-25T18:08:18Z</time>
      </trkpt>
      <trkpt lat="44.50804" lon="6.24063">
        <ele>1255</ele>
        <time>2017-05-25T18:09:21Z</time>
      </trkpt>
      <trkpt lat="44.50714" lon="6.24078">
        <ele>1231</ele>
        <time>2017-05-25T18:09:32Z</time>
      </trkpt>
      <trkpt lat="44.50406" lon="6.24412">
        <ele>1206</ele>
        <time>2017-05-25T18:10:13Z</time>
      </trkpt>
      <trkpt lat="44.50315" lon="6.24766">
        <ele>1214</ele>
        <time>2017-05-25T18:12:03Z</time>
      </trkpt>
      <trkpt lat="44.50174" lon="6.24826">
        <ele>1205</ele>
        <time>2017-05-25T18:12:29Z</time>
      </trkpt>
      <trkpt lat="44.5016" lon="6.24863">
        <ele>1209</ele>
        <time>2017-05-25T18:12:34Z</time>
      </trkpt>
      <trkpt lat="44.50259" lon="6.24829">
        <ele>1219</ele>
        <time>2017-05-25T18:12:50Z</time>
      </trkpt>
      <trkpt lat="44.50233" lon="6.25038">
        <ele>1259</ele>
        <time>2017-05-25T18:13:11Z</time>
      </trkpt>
      <trkpt lat="44.50077" lon="6.25386">
        <ele>1273</ele>
        <time>2017-05-25T18:14:00Z</time>
      </trkpt>
      <trkpt lat="44.50147" lon="6.25507">
        <ele>1272</ele>
        <time>2017-05-25T18:14:36Z</time>
      </trkpt>
      <trkpt lat="44.50184" lon="6.25548">
        <ele>1273</ele>
        <time>2017-05-25T18:14:57Z</time>
      </trkpt>
      <trkpt lat="44.50159" lon="6.25591">
        <ele>1257</ele>
        <time>2017-05-25T18:16:15Z</time>
      </trkpt>
      <trkpt lat="44.50133" lon="6.2569">
        <ele>1256</ele>
        <time>2017-05-25T18:16:47Z</time>
      </trkpt>
      <trkpt lat="44.50034" lon="6.25633">
        <ele>1234</ele>
        <time>2017-05-25T18:17:13Z</time>
      </trkpt>
      <trkpt lat="44.49883" lon="6.25662">
        <ele>1224</ele>
        <time>2017-05-25T18:17:55Z</time>
      </trkpt>
      <trkpt lat="44.49576" lon="6.25342">
        <ele>1226</ele>
        <time>2017-05-25T18:18:38Z</time>
      </trkpt>
      <trkpt lat="44.49489" lon="6.25152">
        <ele>1237</ele>
        <time>2017-05-25T18:18:54Z</time>
      </trkpt>
      <trkpt lat="44.49377" lon="6.25148">
        <ele>1234</ele>
        <time>2017-05-25T18:19:10Z</time>
      </trkpt>
      <trkpt lat="44.49186" lon="6.25406">
        <ele>1228</ele>
        <time>2017-05-25T18:19:30Z</time>
      </trkpt>
      <trkpt lat="44.4913" lon="6.25419">
        <ele>1230</ele>
        <time>2017-05-25T18:19:35Z</time>
      </trkpt>
      <trkpt lat="44.49097" lon="6.25402">
        <ele>1230</ele>
        <time>2017-05-25T18:19:51Z</time>
      </trkpt>
      <trkpt lat="44.49091" lon="6.25394">
        <ele>1230</ele>
        <time>2017-05-25T18:22:03Z</time>
      </trkpt>
      <trkpt lat="44.49088" lon="6.25418">
        <ele>1235</ele>
        <time>2017-05-25T18:23:14Z</time>
      </trkpt>
      <trkpt lat="44.49039" lon="6.25481">
        <ele>1257</ele>
        <time>2017-05-25T18:23:24Z</time>
      </trkpt>
      <trkpt lat="44.48958" lon="6.25469">
        <ele>1284</ele>
        <time>2017-05-25T18:23:34Z</time>
      </trkpt>
      <trkpt lat="44.4883" lon="6.25422">
        <ele>1330</ele>
        <time>2017-05-25T18:23:55Z</time>
      </trkpt>
      <trkpt lat="44.48812" lon="6.25213">
        <ele>1367</ele>
        <time>2017-05-25T18:24:21Z</time>
      </trkpt>
      <trkpt lat="44.48813" lon="6.25182">
        <ele>1371</ele>
        <time>2017-05-25T18:24:47Z</time>
      </trkpt>
      <trkpt lat="44.48758" lon="6.25054">
        <ele>1389</ele>
        <time>2017-05-25T18:25:04Z</time>
      </trkpt>
      <trkpt lat="44.48723" lon="6.25056">
        <ele>1386</ele>
        <time>2017-05-25T18:25:14Z</time>
      </trkpt>
      <trkpt lat="44.48701" lon="6.25024">
        <ele>1386</ele>
        <time>2017-05-25T18:25:30Z</time>
      </trkpt>
      <trkpt lat="44.48701" lon="6.2503">
        <ele>1385</ele>
        <time>2017-05-25T18:26:21Z</time>
      </trkpt>
      <trkpt lat="44.48701" lon="6.25028">
        <ele>1385</ele>
        <time>2017-05-25T18:26:36Z</time>
      </trkpt>
      <trkpt lat="44.48703" lon="6.25028">
        <ele>1387</ele>
        <time>2017-05-25T18:27:31Z</time>
      </trkpt>
      <trkpt lat="44.48703" lon="6.25027">
        <ele>1386</ele>
        <time>2017-05-25T18:28:21Z</time>
      </trkpt>
      <trkpt lat="44.48704" lon="6.25026">
        <ele>1387</ele>
        <time>2017-05-25T18:28:27Z</time>
      </trkpt>
      <trkpt lat="44.48702" lon="6.25028">
        <ele>1386</ele>
        <time>2017-05-25T18:29:17Z</time>
      </trkpt>
      <trkpt lat="44.48702" lon="6.2503">
        <ele>1385</ele>
        <time>2017-05-25T18:29:32Z</time>
      </trkpt>
      <trkpt lat="44.48705" lon="6.25028">
        <ele>1387</ele>
        <time>2017-05-25T18:30:39Z</time>
      </trkpt>
      <trkpt lat="44.48701" lon="6.25023">
        <ele>1386</ele>
        <time>2017-05-25T18:31:51Z</time>
      </trkpt>
      <trkpt lat="44.48694" lon="6.2502">
        <ele>1384</ele>
        <time>2017-05-25T18:32:17Z</time>
      </trkpt>
      <trkpt lat="44.48695" lon="6.25021">
        <ele>1384</ele>
        <time>2017-05-25T18:32:59Z</time>
      </trkpt>
      <trkpt lat="44.48696" lon="6.25018">
        <ele>1385</ele>
        <time>2017-05-25T18:33:14Z</time>
      </trkpt>
      <trkpt lat="44.48695" lon="6.25022">
        <ele>1384</ele>
        <time>2017-05-25T18:34:29Z</time>
      </trkpt>
      <trkpt lat="44.48694" lon="6.25023">
        <ele>1384</ele>
        <time>2017-05-25T18:34:34Z</time>
      </trkpt>
      <trkpt lat="44.48696" lon="6.25023">
        <ele>1384</ele>
        <time>2017-05-25T18:35:09Z</time>
      </trkpt>
      <trkpt lat="44.48696" lon="6.25019">
        <ele>1385</ele>
        <time>2017-05-25T18:35:59Z</time>
      </trkpt>
      <trkpt lat="44.48694" lon="6.25021">
        <ele>1384</ele>
        <time>2017-05-25T18:36:24Z</time>
      </trkpt>
      <trkpt lat="44.48694" lon="6.25017">
        <ele>1385</ele>
        <time>2017-05-25T18:36:39Z</time>
      </trkpt>
      <trkpt lat="44.48696" lon="6.25016">
        <ele>1386</ele>
        <time>2017-05-25T18:38:04Z</time>
      </trkpt>
      <trkpt lat="44.48706" lon="6.25026">
        <ele>1388</ele>
        <time>2017-05-25T18:38:39Z</time>
      </trkpt>
      <trkpt lat="44.48747" lon="6.25027">
        <ele>1387</ele>
        <time>2017-05-25T18:38:54Z</time>
      </trkpt>
      <trkpt lat="44.48784" lon="6.25109">
        <ele>1390</ele>
        <time>2017-05-25T18:39:09Z</time>
      </trkpt>
      <trkpt lat="44.48799" lon="6.25179">
        <ele>1377</ele>
        <time>2017-05-25T18:39:19Z</time>
      </trkpt>
      <trkpt lat="44.48798" lon="6.25342">
        <ele>1346</ele>
        <time>2017-05-25T18:41:09Z</time>
      </trkpt>
      <trkpt lat="44.48824" lon="6.25408">
        <ele>1332</ele>
        <time>2017-05-25T18:41:19Z</time>
      </trkpt>
      <trkpt lat="44.48991" lon="6.25464">
        <ele>1269</ele>
        <time>2017-05-25T18:41:49Z</time>
      </trkpt>
      <trkpt lat="44.49065" lon="6.25471">
        <ele>1248</ele>
        <time>2017-05-25T18:41:59Z</time>
      </trkpt>
      <trkpt lat="44.49092" lon="6.25397">
        <ele>1230</ele>
        <time>2017-05-25T18:42:54Z</time>
      </trkpt>
      <trkpt lat="44.49065" lon="6.2521">
        <ele>1226</ele>
        <time>2017-05-25T18:43:24Z</time>
      </trkpt>
      <trkpt lat="44.49124" lon="6.25036">
        <ele>1208</ele>
        <time>2017-05-25T18:43:34Z</time>
      </trkpt>
      <trkpt lat="44.49076" lon="6.24786">
        <ele>1197</ele>
        <time>2017-05-25T18:43:49Z</time>
      </trkpt>
      <trkpt lat="44.48661" lon="6.24351">
        <ele>1169</ele>
        <time>2017-05-25T18:44:29Z</time>
      </trkpt>
      <trkpt lat="44.48377" lon="6.24243">
        <ele>1158</ele>
        <time>2017-05-25T18:45:09Z</time>
      </trkpt>
      <trkpt lat="44.48331" lon="6.24313">
        <ele>1158</ele>
        <time>2017-05-25T18:45:24Z</time>
      </trkpt>
      <trkpt lat="44.48108" lon="6.23921">
        <ele>1113</ele>
        <time>2017-05-25T18:45:59Z</time>
      </trkpt>
      <trkpt lat="44.48054" lon="6.23898">
        <ele>1099</ele>
        <time>2017-05-25T18:46:24Z</time>
      </trkpt>
      <trkpt lat="44.48059" lon="6.23962">
        <ele>1102</ele>
        <time>2017-05-25T18:47:44Z</time>
      </trkpt>
      <trkpt lat="44.48007" lon="6.23919">
        <ele>1090</ele>
        <time>2017-05-25T18:47:49Z</time>
      </trkpt>
      <trkpt lat="44.47988" lon="6.23815">
        <ele>1076</ele>
        <time>2017-05-25T18:47:59Z</time>
      </trkpt>
      <trkpt lat="44.47658" lon="6.2394">
        <ele>1072</ele>
        <time>2017-05-25T18:48:54Z</time>
      </trkpt>
      <trkpt lat="44.47519" lon="6.24107">
        <ele>1126</ele>
        <time>2017-05-25T18:49:19Z</time>
      </trkpt>
      <trkpt lat="44.47371" lon="6.24057">
        <ele>1149</ele>
        <time>2017-05-25T18:49:44Z</time>
      </trkpt>
      <trkpt lat="44.47355" lon="6.24183">
        <ele>1156</ele>
        <time>2017-05-25T18:49:59Z</time>
      </trkpt>
      <trkpt lat="44.47263" lon="6.24278">
        <ele>1154</ele>
        <time>2017-05-25T18:50:24Z</time>
      </trkpt>
      <trkpt lat="44.47348" lon="6.24184">
        <ele>1157</ele>
        <time>2017-05-25T18:50:44Z</time>
      </trkpt>
      <trkpt lat="44.47389" lon="6.24031">
        <ele>1147</ele>
        <time>2017-05-25T18:51:04Z</time>
      </trkpt>
      <trkpt lat="44.47477" lon="6.24018">
        <ele>1134</ele>
        <time>2017-05-25T18:51:19Z</time>
      </trkpt>
      <trkpt lat="44.47529" lon="6.24097">
        <ele>1124</ele>
        <time>2017-05-25T18:51:34Z</time>
      </trkpt>
      <trkpt lat="44.47689" lon="6.23911">
        <ele>1061</ele>
        <time>2017-05-25T18:52:14Z</time>
      </trkpt>
      <trkpt lat="44.47785" lon="6.23914">
        <ele>1062</ele>
        <time>2017-05-25T18:52:39Z</time>
      </trkpt>
      <trkpt lat="44.47845" lon="6.23892">
        <ele>1061</ele>
        <time>2017-05-25T18:53:19Z</time>
      </trkpt>
      <trkpt lat="44.47749" lon="6.23898">
        <ele>1060</ele>
        <time>2017-05-25T18:54:04Z</time>
      </trkpt>
      <trkpt lat="44.47693" lon="6.23919">
        <ele>1064</ele>
        <time>2017-05-25T18:54:14Z</time>
      </trkpt>
      <trkpt lat="44.47625" lon="6.24007">
        <ele>1090</ele>
        <time>2017-05-25T18:54:29Z</time>
      </trkpt>
      <trkpt lat="44.47533" lon="6.24089">
        <ele>1123</ele>
        <time>2017-05-25T18:54:54Z</time>
      </trkpt>
      <trkpt lat="44.47617" lon="6.24011">
        <ele>1091</ele>
        <time>2017-05-25T18:55:44Z</time>
      </trkpt>
      <trkpt lat="44.47702" lon="6.23907">
        <ele>1061</ele>
        <time>2017-05-25T18:56:04Z</time>
      </trkpt>
      <trkpt lat="44.47839" lon="6.23888">
        <ele>1061</ele>
        <time>2017-05-25T18:56:29Z</time>
      </trkpt>
      <trkpt lat="44.47725" lon="6.2382">
        <ele>1039</ele>
        <time>2017-05-25T18:56:54Z</time>
      </trkpt>
      <trkpt lat="44.47749" lon="6.23688">
        <ele>1007</ele>
        <time>2017-05-25T18:57:34Z</time>
      </trkpt>
      <trkpt lat="44.4767" lon="6.23706">
        <ele>1004</ele>
        <time>2017-05-25T18:57:49Z</time>
      </trkpt>
      <trkpt lat="44.47545" lon="6.23507">
        <ele>966</ele>
        <time>2017-05-25T18:58:14Z</time>
      </trkpt>
      <trkpt lat="44.47386" lon="6.23435">
        <ele>933</ele>
        <time>2017-05-25T18:59:09Z</time>
      </trkpt>
      <trkpt lat="44.47333" lon="6.23369">
        <ele>901</ele>
        <time>2017-05-25T18:59:19Z</time>
      </trkpt>
      <trkpt lat="44.47391" lon="6.23323">
        <ele>896</ele>
        <time>2017-05-25T19:01:09Z</time>
      </trkpt>
      <trkpt lat="44.47259" lon="6.23195">
        <ele>833</ele>
        <time>2017-05-25T19:01:44Z</time>
      </trkpt>
      <trkpt lat="44.47134" lon="6.23326">
        <ele>813</ele>
        <time>2017-05-25T19:02:14Z</time>
      </trkpt>
      <trkpt lat="44.4712" lon="6.23388">
        <ele>813</ele>
        <time>2017-05-25T19:02:24Z</time>
      </trkpt>
      <trkpt lat="44.47016" lon="6.23458">
        <ele>771</ele>
        <time>2017-05-25T19:03:04Z</time>
      </trkpt>
      <trkpt lat="44.46959" lon="6.23557">
        <ele>758</ele>
        <time>2017-05-25T19:03:29Z</time>
      </trkpt>
      <trkpt lat="44.469" lon="6.23581">
        <ele>736</ele>
        <time>2017-05-25T19:03:44Z</time>
      </trkpt>
      <trkpt lat="44.46895" lon="6.23555">
        <ele>730</ele>
        <time>2017-05-25T19:04:09Z</time>
      </trkpt>
      <trkpt lat="44.46872" lon="6.23547">
        <ele>721</ele>
        <time>2017-05-25T19:04:24Z</time>
      </trkpt>
      <trkpt lat="44.46884" lon="6.23313">
        <ele>708</ele>
        <time>2017-05-25T19:04:49Z</time>
      </trkpt>
      <trkpt lat="44.4689" lon="6.233">
        <ele>709</ele>
        <time>2017-05-25T19:04:54Z</time>
      </trkpt>
      <trkpt lat="44.46906" lon="6.23306">
        <ele>712</ele>
        <time>2017-05-25T19:05:19Z</time>
      </trkpt>
      <trkpt lat="44.46907" lon="6.23294">
        <ele>712</ele>
        <time>2017-05-25T19:05:34Z</time>
      </trkpt>
      <trkpt lat="44.46905" lon="6.23292">
        <ele>711</ele>
        <time>2017-05-25T19:06:29Z</time>
      </trkpt>
      <trkpt lat="44.46903" lon="6.23299">
        <ele>711</ele>
        <time>2017-05-25T19:07:44Z</time>
      </trkpt>
      <trkpt lat="44.46901" lon="6.233">
        <ele>711</ele>
        <time>2017-05-25T19:07:49Z</time>
      </trkpt>
      <trkpt lat="44.46912" lon="6.2329">
        <ele>713</ele>
        <time>2017-05-25T19:08:14Z</time>
      </trkpt>
      <trkpt lat="44.46912" lon="6.23306">
        <ele>713</ele>
        <time>2017-05-25T19:09:19Z</time>
      </trkpt>
      <trkpt lat="44.46913" lon="6.23301">
        <ele>713</ele>
        <time>2017-05-25T19:09:49Z</time>
      </trkpt>
      <trkpt lat="44.46896" lon="6.2331">
        <ele>710</ele>
        <time>2017-05-25T19:10:14Z</time>
      </trkpt>
      <trkpt lat="44.46896" lon="6.23308">
        <ele>710</ele>
        <time>2017-05-25T19:10:24Z</time>
      </trkpt>
      <trkpt lat="44.46904" lon="6.23313">
        <ele>712</ele>
        <time>2017-05-25T19:12:24Z</time>
      </trkpt>
      <trkpt lat="44.46916" lon="6.23295">
        <ele>714</ele>
        <time>2017-05-25T19:13:04Z</time>
      </trkpt>
      <trkpt lat="44.4692" lon="6.23301">
        <ele>715</ele>
        <time>2017-05-25T19:13:09Z</time>
      </trkpt>
      <trkpt lat="44.46911" lon="6.23306">
        <ele>713</ele>
        <time>2017-05-25T19:13:19Z</time>
      </trkpt>
      <trkpt lat="44.46906" lon="6.23306">
        <ele>712</ele>
        <time>2017-05-25T19:13:49Z</time>
      </trkpt>
      <trkpt lat="44.46903" lon="6.23294">
        <ele>711</ele>
        <time>2017-05-25T19:14:34Z</time>
      </trkpt>
      <trkpt lat="44.46908" lon="6.23292">
        <ele>712</ele>
        <time>2017-05-25T19:14:44Z</time>
      </trkpt>
      <trkpt lat="44.46909" lon="6.23313">
        <ele>713</ele>
        <time>2017-05-25T19:14:59Z</time>
      </trkpt>
      <trkpt lat="44.46913" lon="6.23321">
        <ele>714</ele>
        <time>2017-05-25T19:16:04Z</time>
      </trkpt>
      <trkpt lat="44.46906" lon="6.23301">
        <ele>712</ele>
        <time>2017-05-25T19:16:29Z</time>
      </trkpt>
      <trkpt lat="44.46893" lon="6.23301">
        <ele>709</ele>
        <time>2017-05-25T19:16:59Z</time>
      </trkpt>
      <trkpt lat="44.46895" lon="6.23308">
        <ele>710</ele>
        <time>2017-05-25T19:17:39Z</time>
      </trkpt>
      <trkpt lat="44.469" lon="6.23313">
        <ele>711</ele>
        <time>2017-05-25T19:17:54Z</time>
      </trkpt>
      <trkpt lat="44.46907" lon="6.23309">
        <ele>713</ele>
        <time>2017-05-25T19:18:19Z</time>
      </trkpt>
      <trkpt lat="44.46904" lon="6.23299">
        <ele>711</ele>
        <time>2017-05-25T19:18:59Z</time>
      </trkpt>
      <trkpt lat="44.46902" lon="6.23315">
        <ele>712</ele>
        <time>2017-05-25T19:19:24Z</time>
      </trkpt>
      <trkpt lat="44.46903" lon="6.23316">
        <ele>712</ele>
        <time>2017-05-25T19:20:19Z</time>
      </trkpt>
      <trkpt lat="44.469" lon="6.23311">
        <ele>711</ele>
        <time>2017-05-25T19:21:24Z</time>
      </trkpt>
      <trkpt lat="44.469" lon="6.23313">
        <ele>711</ele>
        <time>2017-05-25T19:21:34Z</time>
      </trkpt>
      <trkpt lat="44.46903" lon="6.23313">
        <ele>712</ele>
        <time>2017-05-25T19:21:54Z</time>
      </trkpt>
      <trkpt lat="44.46901" lon="6.23313">
        <ele>711</ele>
        <time>2017-05-25T19:22:59Z</time>
      </trkpt>
      <trkpt lat="44.46901" lon="6.23309">
        <ele>711</ele>
        <time>2017-05-25T19:23:34Z</time>
      </trkpt>
      <trkpt lat="44.46899" lon="6.2331">
        <ele>711</ele>
        <time>2017-05-25T19:24:04Z</time>
      </trkpt>
      <trkpt lat="44.46901" lon="6.23313">
        <ele>711</ele>
        <time>2017-05-25T19:24:44Z</time>
      </trkpt>
      <trkpt lat="44.46907" lon="6.23315">
        <ele>713</ele>
        <time>2017-05-25T19:25:14Z</time>
      </trkpt>
      <trkpt lat="44.46912" lon="6.23317">
        <ele>714</ele>
        <time>2017-05-25T19:26:19Z</time>
      </trkpt>
      <trkpt lat="44.46912" lon="6.23314">
        <ele>714</ele>
        <time>2017-05-25T19:26:34Z</time>
      </trkpt>
      <trkpt lat="44.46887" lon="6.23301">
        <ele>708</ele>
        <time>2017-05-25T19:27:09Z</time>
      </trkpt>
      <trkpt lat="44.46871" lon="6.23225">
        <ele>702</ele>
        <time>2017-05-25T19:27:19Z</time>
      </trkpt>
      <trkpt lat="44.4671" lon="6.23371">
        <ele>681</ele>
        <time>2017-05-25T19:27:39Z</time>
      </trkpt>
      <trkpt lat="44.46525" lon="6.23329">
        <ele>665</ele>
        <time>2017-05-25T19:27:59Z</time>
      </trkpt>
      <trkpt lat="44.46496" lon="6.23047">
        <ele>667</ele>
        <time>2017-05-25T19:28:19Z</time>
      </trkpt>
      <trkpt lat="44.46519" lon="6.22929">
        <ele>669</ele>
        <time>2017-05-25T19:28:29Z</time>
      </trkpt>
      <trkpt lat="44.46679" lon="6.22447">
        <ele>672</ele>
        <time>2017-05-25T19:28:59Z</time>
      </trkpt>
      <trkpt lat="44.46796" lon="6.22159">
        <ele>694</ele>
        <time>2017-05-25T19:29:24Z</time>
      </trkpt>
      <trkpt lat="44.46862" lon="6.22389">
        <ele>719</ele>
        <time>2017-05-25T19:30:04Z</time>
      </trkpt>
      <trkpt lat="44.46846" lon="6.22554">
        <ele>709</ele>
        <time>2017-05-25T19:30:19Z</time>
      </trkpt>
      <trkpt lat="44.46964" lon="6.22832">
        <ele>741</ele>
        <time>2017-05-25T19:30:54Z</time>
      </trkpt>
      <trkpt lat="44.46962" lon="6.22743">
        <ele>756</ele>
        <time>2017-05-25T19:31:09Z</time>
      </trkpt>
      <trkpt lat="44.47124" lon="6.22844">
        <ele>791</ele>
        <time>2017-05-25T19:32:04Z</time>
      </trkpt>
      <trkpt lat="44.47037" lon="6.22751">
        <ele>802</ele>
        <time>2017-05-25T19:32:29Z</time>
      </trkpt>
      <trkpt lat="44.47231" lon="6.22787">
        <ele>850</ele>
        <time>2017-05-25T19:32:59Z</time>
      </trkpt>
      <trkpt lat="44.47489" lon="6.22932">
        <ele>853</ele>
        <time>2017-05-25T19:33:39Z</time>
      </trkpt>
      <trkpt lat="44.47579" lon="6.2291">
        <ele>876</ele>
        <time>2017-05-25T19:33:49Z</time>
      </trkpt>
      <trkpt lat="44.47678" lon="6.22963">
        <ele>883</ele>
        <time>2017-05-25T19:34:19Z</time>
      </trkpt>
      <trkpt lat="44.47684" lon="6.2309">
        <ele>869</ele>
        <time>2017-05-25T19:34:39Z</time>
      </trkpt>
      <trkpt lat="44.47713" lon="6.23048">
        <ele>883</ele>
        <time>2017-05-25T19:34:44Z</time>
      </trkpt>
      <trkpt lat="44.47766" lon="6.23048">
        <ele>896</ele>
        <time>2017-05-25T19:34:59Z</time>
      </trkpt>
      <trkpt lat="44.47766" lon="6.23049">
        <ele>896</ele>
        <time>2017-05-25T19:35:34Z</time>
      </trkpt>
      <trkpt lat="44.47765" lon="6.2305">
        <ele>895</ele>
        <time>2017-05-25T19:37:59Z</time>
      </trkpt>
      <trkpt lat="44.47806" lon="6.23016">
        <ele>914</ele>
        <time>2017-05-25T19:38:29Z</time>
      </trkpt>
      <trkpt lat="44.47842" lon="6.23071">
        <ele>910</ele>
        <time>2017-05-25T19:38:44Z</time>
      </trkpt>
      <trkpt lat="44.47843" lon="6.2321">
        <ele>880</ele>
        <time>2017-05-25T19:39:19Z</time>
      </trkpt>
      <trkpt lat="44.47954" lon="6.23137">
        <ele>909</ele>
        <time>2017-05-25T19:39:49Z</time>
      </trkpt>
      <trkpt lat="44.48074" lon="6.23146">
        <ele>907</ele>
        <time>2017-05-25T19:40:14Z</time>
      </trkpt>
      <trkpt lat="44.48392" lon="6.23372">
        <ele>928</ele>
        <time>2017-05-25T19:40:54Z</time>
      </trkpt>
      <trkpt lat="44.48384" lon="6.23429">
        <ele>929</ele>
        <time>2017-05-25T19:41:09Z</time>
      </trkpt>
      <trkpt lat="44.48086" lon="6.2333">
        <ele>941</ele>
        <time>2017-05-25T19:41:49Z</time>
      </trkpt>
      <trkpt lat="44.47833" lon="6.23467">
        <ele>962</ele>
        <time>2017-05-25T19:42:29Z</time>
      </trkpt>
      <trkpt lat="44.47911" lon="6.23451">
        <ele>970</ele>
        <time>2017-05-25T19:42:44Z</time>
      </trkpt>
      <trkpt lat="44.48113" lon="6.23605">
        <ele>1019</ele>
        <time>2017-05-25T19:43:19Z</time>
      </trkpt>
      <trkpt lat="44.48449" lon="6.23712">
        <ele>1010</ele>
        <time>2017-05-25T19:43:49Z</time>
      </trkpt>
      <trkpt lat="44.48567" lon="6.23834">
        <ele>1015</ele>
        <time>2017-05-25T19:44:04Z</time>
      </trkpt>
      <trkpt lat="44.48878" lon="6.24014">
        <ele>989</ele>
        <time>2017-05-25T19:44:44Z</time>
      </trkpt>
      <trkpt lat="44.48985" lon="6.23928">
        <ele>987</ele>
        <time>2017-05-25T19:45:09Z</time>
      </trkpt>
      <trkpt lat="44.49411" lon="6.24181">
        <ele>1043</ele>
        <time>2017-05-25T19:45:59Z</time>
      </trkpt>
      <trkpt lat="44.49659" lon="6.24068">
        <ele>1065</ele>
        <time>2017-05-25T19:46:29Z</time>
      </trkpt>
      <trkpt lat="44.49708" lon="6.24099">
        <ele>1068</ele>
        <time>2017-05-25T19:46:39Z</time>
      </trkpt>
      <trkpt lat="44.49784" lon="6.24149">
        <ele>1078</ele>
        <time>2017-05-25T19:46:54Z</time>
      </trkpt>
      <trkpt lat="44.49803" lon="6.24203">
        <ele>1085</ele>
        <time>2017-05-25T19:46:59Z</time>
      </trkpt>
      <trkpt lat="44.49972" lon="6.24338">
        <ele>1121</ele>
        <time>2017-05-25T19:47:39Z</time>
      </trkpt>
      <trkpt lat="44.50146" lon="6.24556">
        <ele>1159</ele>
        <time>2017-05-25T19:48:14Z</time>
      </trkpt>
      <trkpt lat="44.50226" lon="6.24574">
        <ele>1174</ele>
        <time>2017-05-25T19:48:39Z</time>
      </trkpt>
      <trkpt lat="44.50244" lon="6.24512">
        <ele>1172</ele>
        <time>2017-05-25T19:48:54Z</time>
      </trkpt>
      <trkpt lat="44.50255" lon="6.24519">
        <ele>1174</ele>
        <time>2017-05-25T19:49:59Z</time>
      </trkpt>
      <trkpt lat="44.50253" lon="6.24512">
        <ele>1174</ele>
        <time>2017-05-25T19:50:14Z</time>
      </trkpt>
      <trkpt lat="44.50236" lon="6.24522">
        <ele>1172</ele>
        <time>2017-05-25T19:50:39Z</time>
      </trkpt>
      <trkpt lat="44.50225" lon="6.24551">
        <ele>1172</ele>
        <time>2017-05-25T19:51:09Z</time>
      </trkpt>
      <trkpt lat="44.50227" lon="6.24562">
        <ele>1173</ele>
        <time>2017-05-25T19:51:34Z</time>
      </trkpt>
      <trkpt lat="44.50223" lon="6.24555">
        <ele>1172</ele>
        <time>2017-05-25T19:52:14Z</time>
      </trkpt>
      <trkpt lat="44.50225" lon="6.24561">
        <ele>1173</ele>
        <time>2017-05-25T19:52:39Z</time>
      </trkpt>
      <trkpt lat="44.50223" lon="6.24583">
        <ele>1175</ele>
        <time>2017-05-25T19:53:09Z</time>
      </trkpt>
      <trkpt lat="44.50228" lon="6.24582">
        <ele>1175</ele>
        <time>2017-05-25T19:53:49Z</time>
      </trkpt>
      <trkpt lat="44.50229" lon="6.24583">
        <ele>1176</ele>
        <time>2017-05-25T19:54:14Z</time>
      </trkpt>
      <trkpt lat="44.50227" lon="6.24582">
        <ele>1175</ele>
        <time>2017-05-25T19:55:04Z</time>
      </trkpt>
      <trkpt lat="44.50229" lon="6.2458">
        <ele>1175</ele>
        <time>2017-05-25T19:55:24Z</time>
      </trkpt>
      <trkpt lat="44.5023" lon="6.24575">
        <ele>1175</ele>
        <time>2017-05-25T19:56:14Z</time>
      </trkpt>
      <trkpt lat="44.50223" lon="6.24565">
        <ele>1173</ele>
        <time>2017-05-25T19:57:24Z</time>
      </trkpt>
      <trkpt lat="44.50222" lon="6.24557">
        <ele>1172</ele>
        <time>2017-05-25T19:57:34Z</time>
      </trkpt>
      <trkpt lat="44.50216" lon="6.24552">
        <ele>1171</ele>
        <time>2017-05-25T19:58:04Z</time>
      </trkpt>
      <trkpt lat="44.50223" lon="6.24546">
        <ele>1172</ele>
        <time>2017-05-25T19:58:29Z</time>
      </trkpt>
      <trkpt lat="44.50238" lon="6.2452">
        <ele>1172</ele>
        <time>2017-05-25T19:58:54Z</time>
      </trkpt>
      <trkpt lat="44.5025" lon="6.24512">
        <ele>1173</ele>
        <time>2017-05-25T19:59:09Z</time>
      </trkpt>
      <trkpt lat="44.50253" lon="6.2452">
        <ele>1174</ele>
        <time>2017-05-25T19:59:19Z</time>
      </trkpt>
      <trkpt lat="44.50259" lon="6.24515">
        <ele>1175</ele>
        <time>2017-05-25T20:00:14Z</time>
      </trkpt>
      <trkpt lat="44.50257" lon="6.24522">
        <ele>1175</ele>
        <time>2017-05-25T20:00:24Z</time>
      </trkpt>
      <trkpt lat="44.5025" lon="6.24527">
        <ele>1174</ele>
        <time>2017-05-25T20:01:04Z</time>
      </trkpt>
      <trkpt lat="44.50253" lon="6.24525">
        <ele>1175</ele>
        <time>2017-05-25T20:01:44Z</time>
      </trkpt>
      <trkpt lat="44.50254" lon="6.24522">
        <ele>1175</ele>
        <time>2017-05-25T20:02:04Z</time>
      </trkpt>
      <trkpt lat="44.5025" lon="6.24526">
        <ele>1174</ele>
        <time>2017-05-25T20:02:54Z</time>
      </trkpt>
      <trkpt lat="44.50254" lon="6.2454">
        <ele>1176</ele>
        <time>2017-05-25T20:04:04Z</time>
      </trkpt>
      <trkpt lat="44.50255" lon="6.24539">
        <ele>1176</ele>
        <time>2017-05-25T20:05:04Z</time>
      </trkpt>
      <trkpt lat="44.50257" lon="6.24547">
        <ele>1177</ele>
        <time>2017-05-25T20:06:14Z</time>
      </trkpt>
      <trkpt lat="44.50256" lon="6.24548">
        <ele>1177</ele>
        <time>2017-05-25T20:07:04Z</time>
      </trkpt>
      <trkpt lat="44.50256" lon="6.24545">
        <ele>1176</ele>
        <time>2017-05-25T20:07:34Z</time>
      </trkpt>
      <trkpt lat="44.50254" lon="6.24518">
        <ele>1174</ele>
        <time>2017-05-25T20:08:14Z</time>
      </trkpt>
      <trkpt lat="44.50257" lon="6.24518">
        <ele>1175</ele>
        <time>2017-05-25T20:08:44Z</time>
      </trkpt>
      <trkpt lat="44.50248" lon="6.24498">
        <ele>1172</ele>
        <time>2017-05-25T20:08:54Z</time>
      </trkpt>
      <trkpt lat="44.50296" lon="6.24579">
        <ele>1186</ele>
        <time>2017-05-25T20:09:19Z</time>
      </trkpt>
      <trkpt lat="44.50364" lon="6.24619">
        <ele>1205</ele>
        <time>2017-05-25T20:09:34Z</time>
      </trkpt>
      <trkpt lat="44.50348" lon="6.24441">
        <ele>1189</ele>
        <time>2017-05-25T20:09:49Z</time>
      </trkpt>
      <trkpt lat="44.50558" lon="6.23884">
        <ele>1185</ele>
        <time>2017-05-25T20:10:39Z</time>
      </trkpt>
      <trkpt lat="44.50523" lon="6.23895">
        <ele>1182</ele>
        <time>2017-05-25T20:10:44Z</time>
      </trkpt>
      <trkpt lat="44.50201" lon="6.23852">
        <ele>1182</ele>
        <time>2017-05-25T20:11:19Z</time>
      </trkpt>
      <trkpt lat="44.50374" lon="6.23806">
        <ele>1201</ele>
        <time>2017-05-25T20:11:34Z</time>
      </trkpt>
      <trkpt lat="44.50516" lon="6.23727">
        <ele>1220</ele>
        <time>2017-05-25T20:11:49Z</time>
      </trkpt>
      <trkpt lat="44.50635" lon="6.2362">
        <ele>1238</ele>
        <time>2017-05-25T20:12:04Z</time>
      </trkpt>
      <trkpt lat="44.50782" lon="6.23514">
        <ele>1247</ele>
        <time>2017-05-25T20:12:29Z</time>
      </trkpt>
      <trkpt lat="44.5082" lon="6.2339">
        <ele>1270</ele>
        <time>2017-05-25T20:13:04Z</time>
      </trkpt>
      <trkpt lat="44.50863" lon="6.2342">
        <ele>1271</ele>
        <time>2017-05-25T20:13:19Z</time>
      </trkpt>
      <trkpt lat="44.50916" lon="6.23337">
        <ele>1301</ele>
        <time>2017-05-25T20:14:24Z</time>
      </trkpt>
      <trkpt lat="44.50989" lon="6.23312">
        <ele>1323</ele>
        <time>2017-05-25T20:14:44Z</time>
      </trkpt>
      <trkpt lat="44.51008" lon="6.23247">
        <ele>1341</ele>
        <time>2017-05-25T20:15:34Z</time>
      </trkpt>
      <trkpt lat="44.51007" lon="6.23243">
        <ele>1342</ele>
        <time>2017-05-25T20:15:44Z</time>
      </trkpt>
      <trkpt lat="44.51014" lon="6.23234">
        <ele>1345</ele>
        <time>2017-05-25T20:16:29Z</time>
      </trkpt>
      <trkpt lat="44.5103" lon="6.23286">
        <ele>1338</ele>
        <time>2017-05-25T20:16:54Z</time>
      </trkpt>
      <trkpt lat="44.51042" lon="6.23274">
        <ele>1341</ele>
        <time>2017-05-25T20:17:34Z</time>
      </trkpt>
      <trkpt lat="44.51027" lon="6.23292">
        <ele>1337</ele>
        <time>2017-05-25T20:18:04Z</time>
      </trkpt>
      <trkpt lat="44.51029" lon="6.23288">
        <ele>1337</ele>
        <time>2017-05-25T20:18:29Z</time>
      </trkpt>
      <trkpt lat="44.51031" lon="6.23288">
        <ele>1338</ele>
        <time>2017-05-25T20:18:44Z</time>
      </trkpt>
      <trkpt lat="44.51037" lon="6.23283">
        <ele>1340</ele>
        <time>2017-05-25T20:19:44Z</time>
      </trkpt>
      <trkpt lat="44.51031" lon="6.23278">
        <ele>1339</ele>
        <time>2017-05-25T20:20:24Z</time>
      </trkpt>
      <trkpt lat="44.51031" lon="6.23268">
        <ele>1339</ele>
        <time>2017-05-25T20:21:19Z</time>
      </trkpt>
      <trkpt lat="44.51032" lon="6.23271">
        <ele>1339</ele>
        <time>2017-05-25T20:22:14Z</time>
      </trkpt>
      <trkpt lat="44.51034" lon="6.23272">
        <ele>1339</ele>
        <time>2017-05-25T20:22:54Z</time>
      </trkpt>
      <trkpt lat="44.51035" lon="6.23273">
        <ele>1339</ele>
        <time>2017-05-25T20:23:29Z</time>
      </trkpt>
      <trkpt lat="44.51038" lon="6.23271">
        <ele>1340</ele>
        <time>2017-05-25T20:24:09Z</time>
      </trkpt>
      <trkpt lat="44.5104" lon="6.23272">
        <ele>1341</ele>
        <time>2017-05-25T20:24:29Z</time>
      </trkpt>
      <trkpt lat="44.51034" lon="6.23267">
        <ele>1340</ele>
        <time>2017-05-25T20:24:54Z</time>
      </trkpt>
      <trkpt lat="44.51038" lon="6.23282">
        <ele>1340</ele>
        <time>2017-05-25T20:25:59Z</time>
      </trkpt>
      <trkpt lat="44.51042" lon="6.23274">
        <ele>1341</ele>
        <time>2017-05-25T20:26:39Z</time>
      </trkpt>
      <trkpt lat="44.51033" lon="6.23283">
        <ele>1339</ele>
        <time>2017-05-25T20:26:54Z</time>
      </trkpt>
      <trkpt lat="44.51037" lon="6.23281">
        <ele>1340</ele>
        <time>2017-05-25T20:27:19Z</time>
      </trkpt>
      <trkpt lat="44.51042" lon="6.23276">
        <ele>1341</ele>
        <time>2017-05-25T20:28:24Z</time>
      </trkpt>
      <trkpt lat="44.51044" lon="6.23273">
        <ele>1342</ele>
        <time>2017-05-25T20:28:39Z</time>
      </trkpt>
      <trkpt lat="44.51064" lon="6.23191">
        <ele>1362</ele>
        <time>2017-05-25T20:28:54Z</time>
      </trkpt>
      <trkpt lat="44.51088" lon="6.23333">
        <ele>1361</ele>
        <time>2017-05-25T20:29:09Z</time>
      </trkpt>
      <trkpt lat="44.51299" lon="6.23101">
        <ele>1389</ele>
        <time>2017-05-25T20:29:44Z</time>
      </trkpt>
      <trkpt lat="44.5132" lon="6.23335">
        <ele>1398</ele>
        <time>2017-05-25T20:29:59Z</time>
      </trkpt>
      <trkpt lat="44.5147" lon="6.23644">
        <ele>1415</ele>
        <time>2017-05-25T20:30:24Z</time>
      </trkpt>
      <trkpt lat="44.51433" lon="6.23855">
        <ele>1431</ele>
        <time>2017-05-25T20:30:39Z</time>
      </trkpt>
      <trkpt lat="44.51266" lon="6.23928">
        <ele>1434</ele>
        <time>2017-05-25T20:31:04Z</time>
      </trkpt>
      <trkpt lat="44.51224" lon="6.23968">
        <ele>1435</ele>
        <time>2017-05-25T20:31:09Z</time>
      </trkpt>
      <trkpt lat="44.51095" lon="6.24404">
        <ele>1463</ele>
        <time>2017-05-25T20:31:44Z</time>
      </trkpt>
      <trkpt lat="44.51022" lon="6.24912">
        <ele>1519</ele>
        <time>2017-05-25T20:32:14Z</time>
      </trkpt>
      <trkpt lat="44.50689" lon="6.25341">
        <ele>1536</ele>
        <time>2017-05-25T20:32:54Z</time>
      </trkpt>
      <trkpt lat="44.50646" lon="6.25531">
        <ele>1529</ele>
        <time>2017-05-25T20:33:09Z</time>
      </trkpt>
      <trkpt lat="44.50595" lon="6.25685">
        <ele>1519</ele>
        <time>2017-05-25T20:33:19Z</time>
      </trkpt>
      <trkpt lat="44.50572" lon="6.25795">
        <ele>1517</ele>
        <time>2017-05-25T20:33:29Z</time>
      </trkpt>
      <trkpt lat="44.50564" lon="6.25988">
        <ele>1505</ele>
        <time>2017-05-25T20:33:44Z</time>
      </trkpt>
      <trkpt lat="44.50549" lon="6.26036">
        <ele>1496</ele>
        <time>2017-05-25T20:33:49Z</time>
      </trkpt>
      <trkpt lat="44.50536" lon="6.26064">
        <ele>1488</ele>
        <time>2017-05-25T20:33:59Z</time>
      </trkpt>
      <trkpt lat="44.50535" lon="6.26063">
        <ele>1488</ele>
        <time>2017-05-25T20:34:14Z</time>
      </trkpt>
      <trkpt lat="44.50533" lon="6.26065">
        <ele>1487</ele>
        <time>2017-05-25T20:34:49Z</time>
      </trkpt>
      <trkpt lat="44.50532" lon="6.26065">
        <ele>1487</ele>
        <time>2017-05-25T20:34:54Z</time>
      </trkpt>
      <trkpt lat="44.50533" lon="6.26063">
        <ele>1487</ele>
        <time>2017-05-25T20:35:59Z</time>
      </trkpt>
      <trkpt lat="44.50531" lon="6.26064">
        <ele>1486</ele>
        <time>2017-05-25T20:39:04Z</time>
      </trkpt>
      <trkpt lat="44.50531" lon="6.26065">
        <ele>1486</ele>
        <time>2017-05-25T20:39:19Z</time>
      </trkpt>
      <trkpt lat="44.50533" lon="6.26064">
        <ele>1487</ele>
        <time>2017-05-25T20:41:59Z</time>
      </trkpt>
      <trkpt lat="44.50535" lon="6.26068">
        <ele>1488</ele>
        <time>2017-05-25T20:42:09Z</time>
      </trkpt>
      <trkpt lat="44.5055" lon="6.26164">
        <ele>1485</ele>
        <time>2017-05-25T20:42:24Z</time>
      </trkpt>
      <trkpt lat="44.50556" lon="6.26225">
        <ele>1478</ele>
        <time>2017-05-25T20:42:29Z</time>
      </trkpt>
      <trkpt lat="44.50553" lon="6.26386">
        <ele>1442</ele>
        <time>2017-05-25T20:42:54Z</time>
      </trkpt>
      <trkpt lat="44.50588" lon="6.26605">
        <ele>1409</ele>
        <time>2017-05-25T20:43:19Z</time>
      </trkpt>
      <trkpt lat="44.50568" lon="6.2696">
        <ele>1363</ele>
        <time>2017-05-25T20:43:59Z</time>
      </trkpt>
      <trkpt lat="44.50545" lon="6.27104">
        <ele>1342</ele>
        <time>2017-05-25T20:44:29Z</time>
      </trkpt>
      <trkpt lat="44.50573" lon="6.27237">
        <ele>1319</ele>
        <time>2017-05-25T20:45:04Z</time>
      </trkpt>
      <trkpt lat="44.5059" lon="6.27255">
        <ele>1311</ele>
        <time>2017-05-25T20:45:09Z</time>
      </trkpt>
      <trkpt lat="44.5041" lon="6.27431">
        <ele>1273</ele>
        <time>2017-05-25T20:46:14Z</time>
      </trkpt>
      <trkpt lat="44.50368" lon="6.27552">
        <ele>1281</ele>
        <time>2017-05-25T20:46:24Z</time>
      </trkpt>
      <trkpt lat="44.504" lon="6.27881">
        <ele>1266</ele>
        <time>2017-05-25T20:46:54Z</time>
      </trkpt>
      <trkpt lat="44.50321" lon="6.28003">
        <ele>1247</ele>
        <time>2017-05-25T20:47:19Z</time>
      </trkpt>
      <trkpt lat="44.50124" lon="6.28141">
        <ele>1201</ele>
        <time>2017-05-25T20:47:59Z</time>
      </trkpt>
      <trkpt lat="44.50146" lon="6.28159">
        <ele>1195</ele>
        <time>2017-05-25T20:48:24Z</time>
      </trkpt>
      <trkpt lat="44.50083" lon="6.28223">
        <ele>1166</ele>
        <time>2017-05-25T20:49:14Z</time>
      </trkpt>
      <trkpt lat="44.50011" lon="6.28202">
        <ele>1155</ele>
        <time>2017-05-25T20:49:34Z</time>
      </trkpt>
      <trkpt lat="44.49965" lon="6.28249">
        <ele>1126</ele>
        <time>2017-05-25T20:50:14Z</time>
      </trkpt>
      <trkpt lat="44.49971" lon="6.28303">
        <ele>1111</ele>
        <time>2017-05-25T20:50:34Z</time>
      </trkpt>
      <trkpt lat="44.4998" lon="6.28303">
        <ele>1114</ele>
        <time>2017-05-25T20:50:39Z</time>
      </trkpt>
      <trkpt lat="44.5007" lon="6.28389">
        <ele>1103</ele>
        <time>2017-05-25T20:51:44Z</time>
      </trkpt>
      <trkpt lat="44.4998" lon="6.28368">
        <ele>1094</ele>
        <time>2017-05-25T20:52:09Z</time>
      </trkpt>
      <trkpt lat="44.49858" lon="6.28319">
        <ele>1083</ele>
        <time>2017-05-25T20:52:34Z</time>
      </trkpt>
      <trkpt lat="44.49691" lon="6.28381">
        <ele>1050</ele>
        <time>2017-05-25T20:53:04Z</time>
      </trkpt>
      <trkpt lat="44.49681" lon="6.28398">
        <ele>1046</ele>
        <time>2017-05-25T20:55:29Z</time>
      </trkpt>
      <trkpt lat="44.49681" lon="6.28398">
        <ele>1046</ele>
        <time>2017-05-25T20:55:44Z</time>
      </trkpt>
      <trkpt lat="44.49679" lon="6.28426">
        <ele>1040</ele>
        <time>2017-05-25T20:55:54Z</time>
      </trkpt>
      <trkpt lat="44.49643" lon="6.28458">
        <ele>1031</ele>
        <time>2017-05-25T20:55:59Z</time>
      </trkpt>
      <trkpt lat="44.49536" lon="6.28452">
        <ele>1021</ele>
        <time>2017-05-25T20:56:09Z</time>
      </trkpt>
      <trkpt lat="44.49346" lon="6.28053">
        <ele>1000</ele>
        <time>2017-05-25T20:56:34Z</time>
      </trkpt>
      <trkpt lat="44.49125" lon="6.28112">
        <ele>979</ele>
        <time>2017-05-25T20:56:49Z</time>
      </trkpt>
      <trkpt lat="44.48792" lon="6.28011">
        <ele>987</ele>
        <time>2017-05-25T20:57:14Z</time>
      </trkpt>
      <trkpt lat="44.48651" lon="6.27138">
        <ele>881</ele>
        <time>2017-05-25T20:57:51Z</time>
      </trkpt>
      <trkpt lat="44.48754" lon="6.27052">
        <ele>865</ele>
        <time>2017-05-25T20:58:06Z</time>
      </trkpt>
      <trkpt lat="44.48883" lon="6.27107">
        <ele>885</ele>
        <time>2017-05-25T20:58:31Z</time>
      </trkpt>
      <trkpt lat="44.48943" lon="6.27031">
        <ele>881</ele>
        <time>2017-05-25T20:58:46Z</time>
      </trkpt>
      <trkpt lat="44.48944" lon="6.27003">
        <ele>880</ele>
        <time>2017-05-25T20:58:56Z</time>
      </trkpt>
      <trkpt lat="44.48939" lon="6.27016">
        <ele>880</ele>
        <time>2017-05-25T20:59:41Z</time>
      </trkpt>
      <trkpt lat="44.48943" lon="6.27012">
        <ele>880</ele>
        <time>2017-05-25T21:01:36Z</time>
      </trkpt>
      <trkpt lat="44.48939" lon="6.26996">
        <ele>878</ele>
        <time>2017-05-25T21:01:41Z</time>
      </trkpt>
      <trkpt lat="44.48987" lon="6.26844">
        <ele>886</ele>
        <time>2017-05-25T21:02:06Z</time>
      </trkpt>
      <trkpt lat="44.48971" lon="6.2684">
        <ele>886</ele>
        <time>2017-05-25T21:02:21Z</time>
      </trkpt>
      <trkpt lat="44.48829" lon="6.26912">
        <ele>875</ele>
        <time>2017-05-25T21:02:46Z</time>
      </trkpt>
      <trkpt lat="44.48624" lon="6.26815">
        <ele>862</ele>
        <time>2017-05-25T21:03:26Z</time>
      </trkpt>
      <trkpt lat="44.48576" lon="6.26529">
        <ele>869</ele>
        <time>2017-05-25T21:04:06Z</time>
      </trkpt>
      <trkpt lat="44.48502" lon="6.26632">
        <ele>854</ele>
        <time>2017-05-25T21:04:16Z</time>
      </trkpt>
      <trkpt lat="44.48294" lon="6.26505">
        <ele>856</ele>
        <time>2017-05-25T21:04:46Z</time>
      </trkpt>
      <trkpt lat="44.48262" lon="6.26403">
        <ele>860</ele>
        <time>2017-05-25T21:05:36Z</time>
      </trkpt>
      <trkpt lat="44.48201" lon="6.265">
        <ele>848</ele>
        <time>2017-05-25T21:06:56Z</time>
      </trkpt>
      <trkpt lat="44.4817" lon="6.26331">
        <ele>867</ele>
        <time>2017-05-25T21:07:11Z</time>
      </trkpt>
      <trkpt lat="44.47893" lon="6.25754">
        <ele>945</ele>
        <time>2017-05-25T21:08:21Z</time>
      </trkpt>
      <trkpt lat="44.47911" lon="6.25595">
        <ele>955</ele>
        <time>2017-05-25T21:08:36Z</time>
      </trkpt>
      <trkpt lat="44.47886" lon="6.25449">
        <ele>972</ele>
        <time>2017-05-25T21:09:11Z</time>
      </trkpt>
      <trkpt lat="44.47801" lon="6.25445">
        <ele>981</ele>
        <time>2017-05-25T21:09:41Z</time>
      </trkpt>
      <trkpt lat="44.47792" lon="6.25457">
        <ele>980</ele>
        <time>2017-05-25T21:10:21Z</time>
      </trkpt>
      <trkpt lat="44.4775" lon="6.25531">
        <ele>976</ele>
        <time>2017-05-25T21:10:31Z</time>
      </trkpt>
      <trkpt lat="44.47742" lon="6.25775">
        <ele>954</ele>
        <time>2017-05-25T21:10:46Z</time>
      </trkpt>
      <trkpt lat="44.47562" lon="6.26077">
        <ele>928</ele>
        <time>2017-05-25T21:11:26Z</time>
      </trkpt>
      <trkpt lat="44.47402" lon="6.26151">
        <ele>887</ele>
        <time>2017-05-25T21:12:06Z</time>
      </trkpt>
      <trkpt lat="44.47314" lon="6.26262">
        <ele>850</ele>
        <time>2017-05-25T21:12:46Z</time>
      </trkpt>
      <trkpt lat="44.47308" lon="6.26342">
        <ele>838</ele>
        <time>2017-05-25T21:13:11Z</time>
      </trkpt>
      <trkpt lat="44.47267" lon="6.26316">
        <ele>825</ele>
        <time>2017-05-25T21:13:36Z</time>
      </trkpt>
      <trkpt lat="44.47283" lon="6.26339">
        <ele>827</ele>
        <time>2017-05-25T21:13:56Z</time>
      </trkpt>
      <trkpt lat="44.47385" lon="6.26498">
        <ele>854</ele>
        <time>2017-05-25T21:14:06Z</time>
      </trkpt>
      <trkpt lat="44.47513" lon="6.2696">
        <ele>856</ele>
        <time>2017-05-25T21:14:46Z</time>
      </trkpt>
      <trkpt lat="44.47486" lon="6.26966">
        <ele>845</ele>
        <time>2017-05-25T21:15:51Z</time>
      </trkpt>
      <trkpt lat="44.47527" lon="6.26989">
        <ele>858</ele>
        <time>2017-05-25T21:17:21Z</time>
      </trkpt>
      <trkpt lat="44.47625" lon="6.27247">
        <ele>849</ele>
        <time>2017-05-25T21:17:41Z</time>
      </trkpt>
      <trkpt lat="44.47754" lon="6.27249">
        <ele>842</ele>
        <time>2017-05-25T21:17:51Z</time>
      </trkpt>
      <trkpt lat="44.47946" lon="6.27201">
        <ele>826</ele>
        <time>2017-05-25T21:18:16Z</time>
      </trkpt>
      <trkpt lat="44.47739" lon="6.27499">
        <ele>800</ele>
        <time>2017-05-25T21:18:41Z</time>
      </trkpt>
      <trkpt lat="44.4764" lon="6.27538">
        <ele>793</ele>
        <time>2017-05-25T21:19:01Z</time>
      </trkpt>
      <trkpt lat="44.47666" lon="6.27573">
        <ele>790</ele>
        <time>2017-05-25T21:19:11Z</time>
      </trkpt>
      <trkpt lat="44.47637" lon="6.27508">
        <ele>797</ele>
        <time>2017-05-25T21:20:31Z</time>
      </trkpt>
      <trkpt lat="44.47721" lon="6.27521">
        <ele>797</ele>
        <time>2017-05-25T21:20:41Z</time>
      </trkpt>
      <trkpt lat="44.47886" lon="6.27267">
        <ele>818</ele>
        <time>2017-05-25T21:21:01Z</time>
      </trkpt>
      <trkpt lat="44.47948" lon="6.27191">
        <ele>828</ele>
        <time>2017-05-25T21:21:11Z</time>
      </trkpt>
      <trkpt lat="44.47591" lon="6.27187">
        <ele>853</ele>
        <time>2017-05-25T21:21:36Z</time>
      </trkpt>
      <trkpt lat="44.47437" lon="6.26672">
        <ele>855</ele>
        <time>2017-05-25T21:22:01Z</time>
      </trkpt>
      <trkpt lat="44.47281" lon="6.26329">
        <ele>828</ele>
        <time>2017-05-25T21:22:21Z</time>
      </trkpt>
      <trkpt lat="44.47248" lon="6.26434">
        <ele>790</ele>
        <time>2017-05-25T21:22:46Z</time>
      </trkpt>
      <trkpt lat="44.47114" lon="6.26205">
        <ele>804</ele>
        <time>2017-05-25T21:23:01Z</time>
      </trkpt>
      <trkpt lat="44.46885" lon="6.26232">
        <ele>691</ele>
        <time>2017-05-25T21:24:41Z</time>
      </trkpt>
      <trkpt lat="44.46842" lon="6.25845">
        <ele>692</ele>
        <time>2017-05-25T21:24:56Z</time>
      </trkpt>
      <trkpt lat="44.46714" lon="6.25106">
        <ele>685</ele>
        <time>2017-05-25T21:25:21Z</time>
      </trkpt>
      <trkpt lat="44.46614" lon="6.24669">
        <ele>671</ele>
        <time>2017-05-25T21:25:36Z</time>
      </trkpt>
      <trkpt lat="44.46618" lon="6.24517">
        <ele>677</ele>
        <time>2017-05-25T21:25:41Z</time>
      </trkpt>
      <trkpt lat="44.46668" lon="6.24035">
        <ele>684</ele>
        <time>2017-05-25T21:26:06Z</time>
      </trkpt>
      <trkpt lat="44.46695" lon="6.24057">
        <ele>695</ele>
        <time>2017-05-25T21:26:16Z</time>
      </trkpt>
      <trkpt lat="44.46701" lon="6.23906">
        <ele>696</ele>
        <time>2017-05-25T21:26:31Z</time>
      </trkpt>
      <trkpt lat="44.46748" lon="6.23764">
        <ele>709</ele>
        <time>2017-05-25T21:26:46Z</time>
      </trkpt>
      <trkpt lat="44.46881" lon="6.23529">
        <ele>722</ele>
        <time>2017-05-25T21:27:11Z</time>
      </trkpt>
      <trkpt lat="44.46889" lon="6.2334">
        <ele>710</ele>
        <time>2017-05-25T21:27:26Z</time>
      </trkpt>
      <trkpt lat="44.4691" lon="6.23297">
        <ele>713</ele>
        <time>2017-05-25T21:28:16Z</time>
      </trkpt>
      <trkpt lat="44.46918" lon="6.2331">
        <ele>715</ele>
        <time>2017-05-25T21:29:51Z</time>
      </trkpt>
      <trkpt lat="44.46914" lon="6.23286">
        <ele>713</ele>
        <time>2017-05-25T21:30:41Z</time>
      </trkpt>
      <trkpt lat="44.46919" lon="6.23293">
        <ele>714</ele>
        <time>2017-05-25T21:32:56Z</time>
      </trkpt>
      <trkpt lat="44.46922" lon="6.23295">
        <ele>715</ele>
        <time>2017-05-25T21:33:36Z</time>
      </trkpt>
      <trkpt lat="44.46925" lon="6.23306">
        <ele>717</ele>
        <time>2017-05-25T21:34:01Z</time>
      </trkpt>
      <trkpt lat="44.4693" lon="6.23307">
        <ele>718</ele>
        <time>2017-05-25T21:34:06Z</time>
      </trkpt>
      <trkpt lat="44.46867" lon="6.23265">
        <ele>703</ele>
        <time>2017-05-25T21:34:21Z</time>
      </trkpt>
      <trkpt lat="44.46722" lon="6.23369">
        <ele>682</ele>
        <time>2017-05-25T21:34:41Z</time>
      </trkpt>
      <trkpt lat="44.46534" lon="6.23358">
        <ele>666</ele>
        <time>2017-05-25T21:35:01Z</time>
      </trkpt>
      <trkpt lat="44.46215" lon="6.23649">
        <ele>651</ele>
        <time>2017-05-25T21:35:36Z</time>
      </trkpt>
      <trkpt lat="44.46079" lon="6.23468">
        <ele>657</ele>
        <time>2017-05-25T21:36:16Z</time>
      </trkpt>
      <trkpt lat="44.45978" lon="6.23542">
        <ele>662</ele>
        <time>2017-05-25T21:36:41Z</time>
      </trkpt>
      <trkpt lat="44.45965" lon="6.2321">
        <ele>666</ele>
        <time>2017-05-25T21:37:11Z</time>
      </trkpt>
      <trkpt lat="44.46097" lon="6.22974">
        <ele>653</ele>
        <time>2017-05-25T21:37:36Z</time>
      </trkpt>
      <trkpt lat="44.45916" lon="6.23027">
        <ele>678</ele>
        <time>2017-05-25T21:38:01Z</time>
      </trkpt>
      <trkpt lat="44.45453" lon="6.22989">
        <ele>752</ele>
        <time>2017-05-25T21:38:41Z</time>
      </trkpt>
      <trkpt lat="44.45421" lon="6.22999">
        <ele>759</ele>
        <time>2017-05-25T21:38:56Z</time>
      </trkpt>
      <trkpt lat="44.45429" lon="6.23096">
        <ele>761</ele>
        <time>2017-05-25T21:39:11Z</time>
      </trkpt>
      <trkpt lat="44.45434" lon="6.23116">
        <ele>761</ele>
        <time>2017-05-25T21:39:21Z</time>
      </trkpt>
      <trkpt lat="44.45434" lon="6.23116">
        <ele>761</ele>
        <time>2017-05-25T21:39:26Z</time>
      </trkpt>
      <trkpt lat="44.45436" lon="6.23113">
        <ele>760</ele>
        <time>2017-05-25T21:40:06Z</time>
      </trkpt>
      <trkpt lat="44.45437" lon="6.23116">
        <ele>760</ele>
        <time>2017-05-25T21:40:56Z</time>
      </trkpt>
      <trkpt lat="44.4544" lon="6.23114">
        <ele>759</ele>
        <time>2017-05-25T21:42:16Z</time>
      </trkpt>
      <trkpt lat="44.45432" lon="6.2311">
        <ele>761</ele>
        <time>2017-05-25T21:43:36Z</time>
      </trkpt>
      <trkpt lat="44.45429" lon="6.23106">
        <ele>762</ele>
        <time>2017-05-25T21:44:06Z</time>
      </trkpt>
      <trkpt lat="44.45428" lon="6.23109">
        <ele>762</ele>
        <time>2017-05-25T21:44:46Z</time>
      </trkpt>
      <trkpt lat="44.45432" lon="6.23105">
        <ele>760</ele>
        <time>2017-05-25T21:45:26Z</time>
      </trkpt>
      <trkpt lat="44.45435" lon="6.23101">
        <ele>759</ele>
        <time>2017-05-25T21:45:51Z</time>
      </trkpt>
      <trkpt lat="44.45431" lon="6.23102">
        <ele>761</ele>
        <time>2017-05-25T21:46:16Z</time>
      </trkpt>
      <trkpt lat="44.45428" lon="6.23107">
        <ele>762</ele>
        <time>2017-05-25T21:46:46Z</time>
      </trkpt>
      <trkpt lat="44.45429" lon="6.23141">
        <ele>767</ele>
        <time>2017-05-25T21:47:36Z</time>
      </trkpt>
      <trkpt lat="44.45439" lon="6.23206">
        <ele>780</ele>
        <time>2017-05-25T21:47:46Z</time>
      </trkpt>
      <trkpt lat="44.45483" lon="6.2332">
        <ele>799</ele>
        <time>2017-05-25T21:48:06Z</time>
      </trkpt>
      <trkpt lat="44.45466" lon="6.23363">
        <ele>819</ele>
        <time>2017-05-25T21:48:56Z</time>
      </trkpt>
      <trkpt lat="44.45452" lon="6.23415">
        <ele>834</ele>
        <time>2017-05-25T21:49:06Z</time>
      </trkpt>
      <trkpt lat="44.45453" lon="6.23444">
        <ele>830</ele>
        <time>2017-05-25T21:49:11Z</time>
      </trkpt>
      <trkpt lat="44.45429" lon="6.2345">
        <ele>840</ele>
        <time>2017-05-25T21:49:21Z</time>
      </trkpt>
      <trkpt lat="44.45374" lon="6.23432">
        <ele>864</ele>
        <time>2017-05-25T21:49:46Z</time>
      </trkpt>
      <trkpt lat="44.45389" lon="6.23445">
        <ele>855</ele>
        <time>2017-05-25T21:50:16Z</time>
      </trkpt>
      <trkpt lat="44.45393" lon="6.23445">
        <ele>854</ele>
        <time>2017-05-25T21:50:46Z</time>
      </trkpt>
      <trkpt lat="44.45395" lon="6.23448">
        <ele>852</ele>
        <time>2017-05-25T21:51:26Z</time>
      </trkpt>
      <trkpt lat="44.45395" lon="6.23448">
        <ele>852</ele>
        <time>2017-05-25T21:52:26Z</time>
      </trkpt>
      <trkpt lat="44.45385" lon="6.23442">
        <ele>857</ele>
        <time>2017-05-25T21:53:26Z</time>
      </trkpt>
      <trkpt lat="44.45376" lon="6.23433">
        <ele>863</ele>
        <time>2017-05-25T21:53:46Z</time>
      </trkpt>
      <trkpt lat="44.45287" lon="6.23421">
        <ele>885</ele>
        <time>2017-05-25T21:54:26Z</time>
      </trkpt>
      <trkpt lat="44.45238" lon="6.23419">
        <ele>890</ele>
        <time>2017-05-25T21:54:41Z</time>
      </trkpt>
      <trkpt lat="44.45116" lon="6.23447">
        <ele>903</ele>
        <time>2017-05-25T21:55:06Z</time>
      </trkpt>
      <trkpt lat="44.4504" lon="6.23585">
        <ele>885</ele>
        <time>2017-05-25T21:55:21Z</time>
      </trkpt>
      <trkpt lat="44.44953" lon="6.23473">
        <ele>903</ele>
        <time>2017-05-25T21:55:36Z</time>
      </trkpt>
      <trkpt lat="44.44852" lon="6.23598">
        <ele>889</ele>
        <time>2017-05-25T21:55:51Z</time>
      </trkpt>
      <trkpt lat="44.44526" lon="6.23579">
        <ele>905</ele>
        <time>2017-05-25T21:56:46Z</time>
      </trkpt>
      <trkpt lat="44.44529" lon="6.23807">
        <ele>880</ele>
        <time>2017-05-25T21:57:26Z</time>
      </trkpt>
      <trkpt lat="44.44486" lon="6.23879">
        <ele>899</ele>
        <time>2017-05-25T21:57:36Z</time>
      </trkpt>
      <trkpt lat="44.44287" lon="6.23997">
        <ele>911</ele>
        <time>2017-05-25T21:58:01Z</time>
      </trkpt>
      <trkpt lat="44.44248" lon="6.2398">
        <ele>919</ele>
        <time>2017-05-25T21:58:06Z</time>
      </trkpt>
      <trkpt lat="44.44206" lon="6.24149">
        <ele>883</ele>
        <time>2017-05-25T21:58:26Z</time>
      </trkpt>
      <trkpt lat="44.44015" lon="6.24166">
        <ele>894</ele>
        <time>2017-05-25T21:59:06Z</time>
      </trkpt>
      <trkpt lat="44.43842" lon="6.24447">
        <ele>869</ele>
        <time>2017-05-25T21:59:46Z</time>
      </trkpt>
      <trkpt lat="44.43616" lon="6.24552">
        <ele>869</ele>
        <time>2017-05-25T22:00:26Z</time>
      </trkpt>
      <trkpt lat="44.43248" lon="6.24822">
        <ele>847</ele>
        <time>2017-05-25T22:01:26Z</time>
      </trkpt>
      <trkpt lat="44.43283" lon="6.25087">
        <ele>803</ele>
        <time>2017-05-25T22:02:01Z</time>
      </trkpt>
      <trkpt lat="44.43052" lon="6.253">
        <ele>795</ele>
        <time>2017-05-25T22:02:41Z</time>
      </trkpt>
      <trkpt lat="44.42905" lon="6.25293">
        <ele>829</ele>
        <time>2017-05-25T22:03:11Z</time>
      </trkpt>
      <trkpt lat="44.43067" lon="6.25102">
        <ele>835</ele>
        <time>2017-05-25T22:03:36Z</time>
      </trkpt>
      <trkpt lat="44.42947" lon="6.24911">
        <ele>875</ele>
        <time>2017-05-25T22:04:01Z</time>
      </trkpt>
      <trkpt lat="44.42944" lon="6.24814">
        <ele>919</ele>
        <time>2017-05-25T22:04:16Z</time>
      </trkpt>
      <trkpt lat="44.43237" lon="6.24538">
        <ele>944</ele>
        <time>2017-05-25T22:04:56Z</time>
      </trkpt>
      <trkpt lat="44.43371" lon="6.24537">
        <ele>942</ele>
        <time>2017-05-25T22:05:11Z</time>
      </trkpt>
      <trkpt lat="44.43593" lon="6.24283">
        <ele>991</ele>
        <time>2017-05-25T22:05:36Z</time>
      </trkpt>
      <trkpt lat="44.43894" lon="6.24035">
        <ele>995</ele>
        <time>2017-05-25T22:06:16Z</time>
      </trkpt>
      <trkpt lat="44.43329" lon="6.24275">
        <ele>1077</ele>
        <time>2017-05-25T22:07:11Z</time>
      </trkpt>
      <trkpt lat="44.43142" lon="6.2407">
        <ele>1126</ele>
        <time>2017-05-25T22:07:36Z</time>
      </trkpt>
      <trkpt lat="44.42885" lon="6.24348">
        <ele>1135</ele>
        <time>2017-05-25T22:08:11Z</time>
      </trkpt>
      <trkpt lat="44.42759" lon="6.24011">
        <ele>1191</ele>
        <time>2017-05-25T22:08:41Z</time>
      </trkpt>
      <trkpt lat="44.42538" lon="6.24118">
        <ele>1210</ele>
        <time>2017-05-25T22:09:11Z</time>
      </trkpt>
      <trkpt lat="44.42465" lon="6.24396">
        <ele>1191</ele>
        <time>2017-05-25T22:09:31Z</time>
      </trkpt>
      <trkpt lat="44.42387" lon="6.24143">
        <ele>1222</ele>
        <time>2017-05-25T22:09:51Z</time>
      </trkpt>
      <trkpt lat="44.42433" lon="6.24137">
        <ele>1225</ele>
        <time>2017-05-25T22:10:01Z</time>
      </trkpt>
      <trkpt lat="44.42659" lon="6.23529">
        <ele>1280</ele>
        <time>2017-05-25T22:11:06Z</time>
      </trkpt>
      <trkpt lat="44.43003" lon="6.23579">
        <ele>1279</ele>
        <time>2017-05-25T22:11:36Z</time>
      </trkpt>
      <trkpt lat="44.4329" lon="6.2347">
        <ele>1310</ele>
        <time>2017-05-25T22:12:01Z</time>
      </trkpt>
      <trkpt lat="44.43526" lon="6.23504">
        <ele>1337</ele>
        <time>2017-05-25T22:12:26Z</time>
      </trkpt>
      <trkpt lat="44.43698" lon="6.23395">
        <ele>1344</ele>
        <time>2017-05-25T22:12:41Z</time>
      </trkpt>
      <trkpt lat="44.43962" lon="6.23253">
        <ele>1347</ele>
        <time>2017-05-25T22:13:06Z</time>
      </trkpt>
      <trkpt lat="44.44228" lon="6.2291">
        <ele>1328</ele>
        <time>2017-05-25T22:13:36Z</time>
      </trkpt>
      <trkpt lat="44.443" lon="6.22791">
        <ele>1317</ele>
        <time>2017-05-25T22:13:51Z</time>
      </trkpt>
      <trkpt lat="44.44362" lon="6.22741">
        <ele>1313</ele>
        <time>2017-05-25T22:14:01Z</time>
      </trkpt>
      <trkpt lat="44.44401" lon="6.22694">
        <ele>1310</ele>
        <time>2017-05-25T22:14:11Z</time>
      </trkpt>
      <trkpt lat="44.444" lon="6.22692">
        <ele>1311</ele>
        <time>2017-05-25T22:14:16Z</time>
      </trkpt>
      <trkpt lat="44.444" lon="6.22694">
        <ele>1311</ele>
        <time>2017-05-25T22:15:51Z</time>
      </trkpt>
      <trkpt lat="44.444" lon="6.22694">
        <ele>1311</ele>
        <time>2017-05-25T22:16:31Z</time>
      </trkpt>
      <trkpt lat="44.44398" lon="6.2269">
        <ele>1311</ele>
        <time>2017-05-25T22:16:56Z</time>
      </trkpt>
      <trkpt lat="44.44398" lon="6.22691">
        <ele>1311</ele>
        <time>2017-05-25T22:17:06Z</time>
      </trkpt>
      <trkpt lat="44.444" lon="6.22693">
        <ele>1311</ele>
        <time>2017-05-25T22:17:21Z</time>
      </trkpt>
      <trkpt lat="44.44398" lon="6.22694">
        <ele>1312</ele>
        <time>2017-05-25T22:17:36Z</time>
      </trkpt>
      <trkpt lat="44.44398" lon="6.22694">
        <ele>1311</ele>
        <time>2017-05-25T22:17:46Z</time>
      </trkpt>
      <trkpt lat="44.44399" lon="6.22694">
        <ele>1311</ele>
        <time>2017-05-25T22:18:11Z</time>
      </trkpt>
      <trkpt lat="44.44399" lon="6.22694">
        <ele>1311</ele>
        <time>2017-05-25T22:18:16Z</time>
      </trkpt>
      <trkpt lat="44.44398" lon="6.22694">
        <ele>1311</ele>
        <time>2017-05-25T22:18:41Z</time>
      </trkpt>
      <trkpt lat="44.44399" lon="6.22695">
        <ele>1311</ele>
        <time>2017-05-25T22:18:51Z</time>
      </trkpt>
      <trkpt lat="44.44398" lon="6.22696">
        <ele>1311</ele>
        <time>2017-05-25T22:20:16Z</time>
      </trkpt>
      <trkpt lat="44.44398" lon="6.22697">
        <ele>1311</ele>
        <time>2017-05-25T22:20:26Z</time>
      </trkpt>
      <trkpt lat="44.44398" lon="6.22697">
        <ele>1311</ele>
        <time>2017-05-25T22:20:56Z</time>
      </trkpt>
      <trkpt lat="44.44398" lon="6.22697">
        <ele>1311</ele>
        <time>2017-05-25T22:22:51Z</time>
      </trkpt>
      <trkpt lat="44.44398" lon="6.22696">
        <ele>1311</ele>
        <time>2017-05-25T22:23:31Z</time>
      </trkpt>
      <trkpt lat="44.44398" lon="6.22697">
        <ele>1311</ele>
        <time>2017-05-25T22:24:16Z</time>
      </trkpt>
      <trkpt lat="44.44399" lon="6.22697">
        <ele>1311</ele>
        <time>2017-05-25T22:24:31Z</time>
      </trkpt>
      <trkpt lat="44.44399" lon="6.22697">
        <ele>1311</ele>
        <time>2017-05-25T22:25:06Z</time>
      </trkpt>
      <trkpt lat="44.44399" lon="6.22697">
        <ele>1311</ele>
        <time>2017-05-25T22:25:11Z</time>
      </trkpt>
      <trkpt lat="44.44399" lon="6.22697">
        <ele>1311</ele>
        <time>2017-05-25T22:26:51Z</time>
      </trkpt>
      <trkpt lat="44.44399" lon="6.22697">
        <ele>1311</ele>
        <time>2017-05-25T22:26:56Z</time>
      </trkpt>
      <trkpt lat="44.44399" lon="6.22697">
        <ele>1311</ele>
        <time>2017-05-25T22:28:01Z</time>
      </trkpt>
      <trkpt lat="44.44399" lon="6.22698">
        <ele>1311</ele>
        <time>2017-05-25T22:28:31Z</time>
      </trkpt>
      <trkpt lat="44.44399" lon="6.22697">
        <ele>1311</ele>
        <time>2017-05-25T22:29:36Z</time>
      </trkpt>
      <trkpt lat="44.44398" lon="6.22698">
        <ele>1311</ele>
        <time>2017-05-25T22:30:11Z</time>
      </trkpt>
      <trkpt lat="44.44397" lon="6.22697">
        <ele>1312</ele>
        <time>2017-05-25T22:30:31Z</time>
      </trkpt>
      <trkpt lat="44.44397" lon="6.22697">
        <ele>1312</ele>
        <time>2017-05-25T22:30:56Z</time>
      </trkpt>
      <trkpt lat="44.44396" lon="6.22698">
        <ele>1312</ele>
        <time>2017-05-25T22:31:51Z</time>
      </trkpt>
      <trkpt lat="44.44396" lon="6.22698">
        <ele>1312</ele>
        <time>2017-05-25T22:32:11Z</time>
      </trkpt>
      <trkpt lat="44.44396" lon="6.22698">
        <ele>1312</ele>
        <time>2017-05-25T22:33:06Z</time>
      </trkpt>
      <trkpt lat="44.44397" lon="6.22698">
        <ele>1312</ele>
        <time>2017-05-25T22:33:36Z</time>
      </trkpt>
      <trkpt lat="44.44397" lon="6.22698">
        <ele>1312</ele>
        <time>2017-05-25T22:34:16Z</time>
      </trkpt>
      <trkpt lat="44.44397" lon="6.22698">
        <ele>1312</ele>
        <time>2017-05-25T22:34:26Z</time>
      </trkpt>
      <trkpt lat="44.44397" lon="6.22698">
        <ele>1312</ele>
        <time>2017-05-25T22:34:36Z</time>
      </trkpt>
      <trkpt lat="44.44397" lon="6.22699">
        <ele>1312</ele>
        <time>2017-05-25T22:36:36Z</time>
      </trkpt>
      <trkpt lat="44.44397" lon="6.22699">
        <ele>1312</ele>
        <time>2017-05-25T22:36:41Z</time>
      </trkpt>
      <trkpt lat="44.44397" lon="6.22699">
        <ele>1312</ele>
        <time>2017-05-25T22:36:51Z</time>
      </trkpt>
      <trkpt lat="44.44397" lon="6.22699">
        <ele>1312</ele>
        <time>2017-05-25T22:37:16Z</time>
      </trkpt>
      <trkpt lat="44.44398" lon="6.22699">
        <ele>1311</ele>
        <time>2017-05-25T22:38:26Z</time>
      </trkpt>
      <trkpt lat="44.44398" lon="6.22699">
        <ele>1311</ele>
        <time>2017-05-25T22:38:56Z</time>
      </trkpt>
      <trkpt lat="44.44398" lon="6.22699">
        <ele>1311</ele>
        <time>2017-05-25T22:40:11Z</time>
      </trkpt>
      <trkpt lat="44.44398" lon="6.22699">
        <ele>1311</ele>
        <time>2017-05-25T22:40:16Z</time>
      </trkpt>
      <trkpt lat="44.44398" lon="6.22698">
        <ele>1311</ele>
        <time>2017-05-25T22:41:06Z</time>
      </trkpt>
      <trkpt lat="44.44398" lon="6.22698">
        <ele>1311</ele>
        <time>2017-05-25T22:41:16Z</time>
      </trkpt>
      <trkpt lat="44.44398" lon="6.22698">
        <ele>1311</ele>
        <time>2017-05-25T22:41:46Z</time>
      </trkpt>
      <trkpt lat="44.44398" lon="6.22698">
        <ele>1311</ele>
        <time>2017-05-25T22:41:56Z</time>
      </trkpt>
      <trkpt lat="44.44398" lon="6.22697">
        <ele>1311</ele>
        <time>2017-05-25T22:42:36Z</time>
      </trkpt>
      <trkpt lat="44.44398" lon="6.22696">
        <ele>1311</ele>
        <time>2017-05-25T22:43:16Z</time>
      </trkpt>
      <trkpt lat="44.444" lon="6.22694">
        <ele>1311</ele>
        <time>2017-05-25T22:44:26Z</time>
      </trkpt>
      <trkpt lat="44.44401" lon="6.22693">
        <ele>1311</ele>
        <time>2017-05-25T22:44:41Z</time>
      </trkpt>
      <trkpt lat="44.44402" lon="6.22693">
        <ele>1310</ele>
        <time>2017-05-25T22:44:56Z</time>
      </trkpt>
      <trkpt lat="44.44402" lon="6.22693">
        <ele>1310</ele>
        <time>2017-05-25T22:45:31Z</time>
      </trkpt>
      <trkpt lat="44.44402" lon="6.22693">
        <ele>1310</ele>
        <time>2017-05-25T22:45:46Z</time>
      </trkpt>
      <trkpt lat="44.44401" lon="6.22693">
        <ele>1311</ele>
        <time>2017-05-25T22:46:56Z</time>
      </trkpt>
      <trkpt lat="44.44401" lon="6.22693">
        <ele>1311</ele>
        <time>2017-05-25T22:47:06Z</time>
      </trkpt>
      <trkpt lat="44.44401" lon="6.22693">
        <ele>1311</ele>
        <time>2017-05-25T22:47:36Z</time>
      </trkpt>
      <trkpt lat="44.44401" lon="6.22693">
        <ele>1311</ele>
        <time>2017-05-25T22:47:46Z</time>
      </trkpt>
      <trkpt lat="44.44401" lon="6.22693">
        <ele>1311</ele>
        <time>2017-05-25T22:48:51Z</time>
      </trkpt>
      <trkpt lat="44.44401" lon="6.22693">
        <ele>1311</ele>
        <time>2017-05-25T22:49:31Z</time>
      </trkpt>
      <trkpt lat="44.44401" lon="6.22693">
        <ele>1311</ele>
        <time>2017-05-25T22:50:11Z</time>
      </trkpt>
      <trkpt lat="44.44401" lon="6.22692">
        <ele>1311</ele>
        <time>2017-05-25T22:50:56Z</time>
      </trkpt>
      <trkpt lat="44.44402" lon="6.22693">
        <ele>1310</ele>
        <time>2017-05-25T22:51:06Z</time>
      </trkpt>
      <trkpt lat="44.44402" lon="6.22693">
        <ele>1310</ele>
        <time>2017-05-25T22:52:11Z</time>
      </trkpt>
      <trkpt lat="44.44402" lon="6.22694">
        <ele>1310</ele>
        <time>2017-05-25T22:53:06Z</time>
      </trkpt>
      <trkpt lat="44.44402" lon="6.22694">
        <ele>1310</ele>
        <time>2017-05-25T22:53:36Z</time>
      </trkpt>
      <trkpt lat="44.44402" lon="6.22694">
        <ele>1310</ele>
        <time>2017-05-25T22:53:46Z</time>
      </trkpt>
      <trkpt lat="44.44402" lon="6.22694">
        <ele>1310</ele>
        <time>2017-05-25T22:53:56Z</time>
      </trkpt>
      <trkpt lat="44.44402" lon="6.22694">
        <ele>1310</ele>
        <time>2017-05-25T22:54:01Z</time>
      </trkpt>
      <trkpt lat="44.44402" lon="6.22694">
        <ele>1310</ele>
        <time>2017-05-25T22:55:56Z</time>
      </trkpt>
      <trkpt lat="44.44403" lon="6.22692">
        <ele>1310</ele>
        <time>2017-05-25T22:56:36Z</time>
      </trkpt>
      <trkpt lat="44.44402" lon="6.22691">
        <ele>1310</ele>
        <time>2017-05-25T22:56:51Z</time>
      </trkpt>
      <trkpt lat="44.44402" lon="6.22695">
        <ele>1310</ele>
        <time>2017-05-25T22:57:21Z</time>
      </trkpt>
      <trkpt lat="44.44402" lon="6.22694">
        <ele>1310</ele>
        <time>2017-05-25T22:57:36Z</time>
      </trkpt>
      <trkpt lat="44.44403" lon="6.22696">
        <ele>1310</ele>
        <time>2017-05-25T22:58:26Z</time>
      </trkpt>
      <trkpt lat="44.44403" lon="6.22696">
        <ele>1309</ele>
        <time>2017-05-25T22:58:36Z</time>
      </trkpt>
      <trkpt lat="44.44407" lon="6.22694">
        <ele>1308</ele>
        <time>2017-05-25T22:59:16Z</time>
      </trkpt>
      <trkpt lat="44.44404" lon="6.22694">
        <ele>1309</ele>
        <time>2017-05-25T23:00:26Z</time>
      </trkpt>
      <trkpt lat="44.44406" lon="6.22694">
        <ele>1309</ele>
        <time>2017-05-25T23:01:56Z</time>
      </trkpt>
      <trkpt lat="44.44403" lon="6.22694">
        <ele>1309</ele>
        <time>2017-05-25T23:02:36Z</time>
      </trkpt>
      <trkpt lat="44.44402" lon="6.22697">
        <ele>1310</ele>
        <time>2017-05-25T23:03:01Z</time>
      </trkpt>
      <trkpt lat="44.444" lon="6.22694">
        <ele>1310</ele>
        <time>2017-05-25T23:03:21Z</time>
      </trkpt>
      <trkpt lat="44.44302" lon="6.22797">
        <ele>1316</ele>
        <time>2017-05-25T23:03:46Z</time>
      </trkpt>
      <trkpt lat="44.44249" lon="6.22891">
        <ele>1325</ele>
        <time>2017-05-25T23:04:01Z</time>
      </trkpt>
      <trkpt lat="44.44158" lon="6.22975">
        <ele>1326</ele>
        <time>2017-05-25T23:04:11Z</time>
      </trkpt>
      <trkpt lat="44.43955" lon="6.23263">
        <ele>1348</ele>
        <time>2017-05-25T23:04:36Z</time>
      </trkpt>
      <trkpt lat="44.43816" lon="6.23328">
        <ele>1354</ele>
        <time>2017-05-25T23:04:51Z</time>
      </trkpt>
      <trkpt lat="44.43482" lon="6.23529">
        <ele>1331</ele>
        <time>2017-05-25T23:05:16Z</time>
      </trkpt>
      <trkpt lat="44.43319" lon="6.23464">
        <ele>1311</ele>
        <time>2017-05-25T23:05:31Z</time>
      </trkpt>
      <trkpt lat="44.42981" lon="6.23576">
        <ele>1279</ele>
        <time>2017-05-25T23:06:01Z</time>
      </trkpt>
      <trkpt lat="44.42673" lon="6.23479">
        <ele>1276</ele>
        <time>2017-05-25T23:06:36Z</time>
      </trkpt>
      <trkpt lat="44.42648" lon="6.23282">
        <ele>1254</ele>
        <time>2017-05-25T23:06:51Z</time>
      </trkpt>
      <trkpt lat="44.42721" lon="6.23079">
        <ele>1208</ele>
        <time>2017-05-25T23:07:06Z</time>
      </trkpt>
      <trkpt lat="44.42625" lon="6.22729">
        <ele>1170</ele>
        <time>2017-05-25T23:07:41Z</time>
      </trkpt>
      <trkpt lat="44.42502" lon="6.22487">
        <ele>1142</ele>
        <time>2017-05-25T23:08:01Z</time>
      </trkpt>
      <trkpt lat="44.42495" lon="6.22337">
        <ele>1116</ele>
        <time>2017-05-25T23:08:11Z</time>
      </trkpt>
      <trkpt lat="44.42465" lon="6.22246">
        <ele>1107</ele>
        <time>2017-05-25T23:08:36Z</time>
      </trkpt>
      <trkpt lat="44.42491" lon="6.22294">
        <ele>1109</ele>
        <time>2017-05-25T23:09:16Z</time>
      </trkpt>
      <trkpt lat="44.42493" lon="6.22292">
        <ele>1109</ele>
        <time>2017-05-25T23:10:01Z</time>
      </trkpt>
      <trkpt lat="44.42496" lon="6.22293">
        <ele>1108</ele>
        <time>2017-05-25T23:11:21Z</time>
      </trkpt>
      <trkpt lat="44.42498" lon="6.22291">
        <ele>1107</ele>
        <time>2017-05-25T23:12:01Z</time>
      </trkpt>
      <trkpt lat="44.42499" lon="6.223">
        <ele>1109</ele>
        <time>2017-05-25T23:13:01Z</time>
      </trkpt>
      <trkpt lat="44.42478" lon="6.22242">
        <ele>1104</ele>
        <time>2017-05-25T23:13:16Z</time>
      </trkpt>
      <trkpt lat="44.4246" lon="6.22224">
        <ele>1107</ele>
        <time>2017-05-25T23:13:21Z</time>
      </trkpt>
      <trkpt lat="44.42645" lon="6.2201">
        <ele>1047</ele>
        <time>2017-05-25T23:13:56Z</time>
      </trkpt>
      <trkpt lat="44.42656" lon="6.21873">
        <ele>1030</ele>
        <time>2017-05-25T23:14:11Z</time>
      </trkpt>
      <trkpt lat="44.42829" lon="6.21835">
        <ele>982</ele>
        <time>2017-05-25T23:14:51Z</time>
      </trkpt>
      <trkpt lat="44.42702" lon="6.21462">
        <ele>949</ele>
        <time>2017-05-25T23:15:21Z</time>
      </trkpt>
      <trkpt lat="44.42663" lon="6.21216">
        <ele>917</ele>
        <time>2017-05-25T23:15:41Z</time>
      </trkpt>
      <trkpt lat="44.42589" lon="6.21124">
        <ele>915</ele>
        <time>2017-05-25T23:15:56Z</time>
      </trkpt>
      <trkpt lat="44.42594" lon="6.211">
        <ele>913</ele>
        <time>2017-05-25T23:16:51Z</time>
      </trkpt>
      <trkpt lat="44.42578" lon="6.21237">
        <ele>938</ele>
        <time>2017-05-25T23:17:41Z</time>
      </trkpt>
      <trkpt lat="44.42589" lon="6.21166">
        <ele>921</ele>
        <time>2017-05-25T23:18:21Z</time>
      </trkpt>
      <trkpt lat="44.42594" lon="6.21096">
        <ele>913</ele>
        <time>2017-05-25T23:19:01Z</time>
      </trkpt>
      <trkpt lat="44.42571" lon="6.21249">
        <ele>941</ele>
        <time>2017-05-25T23:19:31Z</time>
      </trkpt>
      <trkpt lat="44.42584" lon="6.21186">
        <ele>925</ele>
        <time>2017-05-25T23:19:46Z</time>
      </trkpt>
      <trkpt lat="44.426" lon="6.21013">
        <ele>913</ele>
        <time>2017-05-25T23:21:21Z</time>
      </trkpt>
      <trkpt lat="44.42765" lon="6.20862">
        <ele>895</ele>
        <time>2017-05-25T23:21:41Z</time>
      </trkpt>
      <trkpt lat="44.42733" lon="6.20448">
        <ele>881</ele>
        <time>2017-05-25T23:22:11Z</time>
      </trkpt>
      <trkpt lat="44.42815" lon="6.2034">
        <ele>879</ele>
        <time>2017-05-25T23:22:26Z</time>
      </trkpt>
      <trkpt lat="44.42567" lon="6.19921">
        <ele>860</ele>
        <time>2017-05-25T23:23:16Z</time>
      </trkpt>
      <trkpt lat="44.42525" lon="6.20131">
        <ele>858</ele>
        <time>2017-05-25T23:23:41Z</time>
      </trkpt>
      <trkpt lat="44.42312" lon="6.19646">
        <ele>827</ele>
        <time>2017-05-25T23:24:26Z</time>
      </trkpt>
      <trkpt lat="44.42265" lon="6.19691">
        <ele>822</ele>
        <time>2017-05-25T23:24:36Z</time>
      </trkpt>
      <trkpt lat="44.41881" lon="6.19445">
        <ele>821</ele>
        <time>2017-05-25T23:25:21Z</time>
      </trkpt>
      <trkpt lat="44.41876" lon="6.19285">
        <ele>824</ele>
        <time>2017-05-25T23:25:56Z</time>
      </trkpt>
      <trkpt lat="44.41819" lon="6.19193">
        <ele>840</ele>
        <time>2017-05-25T23:26:11Z</time>
      </trkpt>
      <trkpt lat="44.41657" lon="6.19112">
        <ele>862</ele>
        <time>2017-05-25T23:26:36Z</time>
      </trkpt>
      <trkpt lat="44.41574" lon="6.192">
        <ele>874</ele>
        <time>2017-05-25T23:26:51Z</time>
      </trkpt>
      <trkpt lat="44.41368" lon="6.19217">
        <ele>897</ele>
        <time>2017-05-25T23:27:46Z</time>
      </trkpt>
      <trkpt lat="44.41167" lon="6.1912">
        <ele>916</ele>
        <time>2017-05-25T23:28:11Z</time>
      </trkpt>
      <trkpt lat="44.41391" lon="6.18745">
        <ele>887</ele>
        <time>2017-05-25T23:28:46Z</time>
      </trkpt>
      <trkpt lat="44.41584" lon="6.18593">
        <ele>861</ele>
        <time>2017-05-25T23:29:06Z</time>
      </trkpt>
      <trkpt lat="44.41713" lon="6.18345">
        <ele>834</ele>
        <time>2017-05-25T23:29:31Z</time>
      </trkpt>
      <trkpt lat="44.41735" lon="6.18039">
        <ele>811</ele>
        <time>2017-05-25T23:30:11Z</time>
      </trkpt>
      <trkpt lat="44.41771" lon="6.17988">
        <ele>814</ele>
        <time>2017-05-25T23:30:21Z</time>
      </trkpt>
      <trkpt lat="44.42115" lon="6.17857">
        <ele>812</ele>
        <time>2017-05-25T23:31:06Z</time>
      </trkpt>
      <trkpt lat="44.42146" lon="6.1793">
        <ele>802</ele>
        <time>2017-05-25T23:31:26Z</time>
      </trkpt>
      <trkpt lat="44.42166" lon="6.17832">
        <ele>806</ele>
        <time>2017-05-25T23:32:11Z</time>
      </trkpt>
      <trkpt lat="44.42348" lon="6.18096">
        <ele>812</ele>
        <time>2017-05-25T23:32:46Z</time>
      </trkpt>
      <trkpt lat="44.42813" lon="6.17998">
        <ele>856</ele>
        <time>2017-05-25T23:33:26Z</time>
      </trkpt>
      <trkpt lat="44.42924" lon="6.17828">
        <ele>867</ele>
        <time>2017-05-25T23:33:41Z</time>
      </trkpt>
      <trkpt lat="44.43028" lon="6.17336">
        <ele>920</ele>
        <time>2017-05-25T23:34:21Z</time>
      </trkpt>
      <trkpt lat="44.43343" lon="6.17043">
        <ele>936</ele>
        <time>2017-05-25T23:34:51Z</time>
      </trkpt>
      <trkpt lat="44.43115" lon="6.17179">
        <ele>966</ele>
        <time>2017-05-25T23:35:16Z</time>
      </trkpt>
      <trkpt lat="44.43226" lon="6.17064">
        <ele>974</ele>
        <time>2017-05-25T23:36:11Z</time>
      </trkpt>
      <trkpt lat="44.43216" lon="6.17102">
        <ele>967</ele>
        <time>2017-05-25T23:36:46Z</time>
      </trkpt>
      <trkpt lat="44.43277" lon="6.16933">
        <ele>979</ele>
        <time>2017-05-25T23:37:06Z</time>
      </trkpt>
      <trkpt lat="44.4314" lon="6.17049">
        <ele>1000</ele>
        <time>2017-05-25T23:37:31Z</time>
      </trkpt>
      <trkpt lat="44.43184" lon="6.1696">
        <ele>1016</ele>
        <time>2017-05-25T23:37:46Z</time>
      </trkpt>
      <trkpt lat="44.42902" lon="6.17021">
        <ele>1066</ele>
        <time>2017-05-25T23:38:46Z</time>
      </trkpt>
      <trkpt lat="44.42762" lon="6.17171">
        <ele>1063</ele>
        <time>2017-05-25T23:39:01Z</time>
      </trkpt>
      <trkpt lat="44.42795" lon="6.17067">
        <ele>1075</ele>
        <time>2017-05-25T23:39:06Z</time>
      </trkpt>
      <trkpt lat="44.43153" lon="6.16745">
        <ele>1088</ele>
        <time>2017-05-25T23:39:46Z</time>
      </trkpt>
      <trkpt lat="44.42952" lon="6.1637">
        <ele>1118</ele>
        <time>2017-05-25T23:40:26Z</time>
      </trkpt>
      <trkpt lat="44.42847" lon="6.16073">
        <ele>1132</ele>
        <time>2017-05-25T23:41:16Z</time>
      </trkpt>
      <trkpt lat="44.42788" lon="6.1597">
        <ele>1138</ele>
        <time>2017-05-25T23:41:31Z</time>
      </trkpt>
      <trkpt lat="44.42918" lon="6.15824">
        <ele>1118</ele>
        <time>2017-05-25T23:42:06Z</time>
      </trkpt>
      <trkpt lat="44.4313" lon="6.15359">
        <ele>1182</ele>
        <time>2017-05-25T23:43:01Z</time>
      </trkpt>
      <trkpt lat="44.43124" lon="6.15339">
        <ele>1181</ele>
        <time>2017-05-25T23:43:16Z</time>
      </trkpt>
      <trkpt lat="44.43274" lon="6.15266">
        <ele>1198</ele>
        <time>2017-05-25T23:43:41Z</time>
      </trkpt>
      <trkpt lat="44.43493" lon="6.15029">
        <ele>1223</ele>
        <time>2017-05-25T23:44:11Z</time>
      </trkpt>
      <trkpt lat="44.43637" lon="6.14651">
        <ele>1262</ele>
        <time>2017-05-25T23:44:46Z</time>
      </trkpt>
      <trkpt lat="44.43803" lon="6.14477">
        <ele>1314</ele>
        <time>2017-05-25T23:45:16Z</time>
      </trkpt>
      <trkpt lat="44.43795" lon="6.1443">
        <ele>1316</ele>
        <time>2017-05-25T23:47:41Z</time>
      </trkpt>
      <trkpt lat="44.43815" lon="6.14365">
        <ele>1331</ele>
        <time>2017-05-25T23:47:46Z</time>
      </trkpt>
      <trkpt lat="44.4376" lon="6.1431">
        <ele>1319</ele>
        <time>2017-05-25T23:47:56Z</time>
      </trkpt>
      <trkpt lat="44.43769" lon="6.14152">
        <ele>1323</ele>
        <time>2017-05-25T23:48:06Z</time>
      </trkpt>
      <trkpt lat="44.43853" lon="6.13995">
        <ele>1359</ele>
        <time>2017-05-25T23:48:21Z</time>
      </trkpt>
      <trkpt lat="44.43683" lon="6.13762">
        <ele>1356</ele>
        <time>2017-05-25T23:48:51Z</time>
      </trkpt>
      <trkpt lat="44.43821" lon="6.13581">
        <ele>1384</ele>
        <time>2017-05-25T23:49:16Z</time>
      </trkpt>
      <trkpt lat="44.43784" lon="6.13292">
        <ele>1369</ele>
        <time>2017-05-25T23:49:46Z</time>
      </trkpt>
      <trkpt lat="44.43868" lon="6.13264">
        <ele>1346</ele>
        <time>2017-05-25T23:50:06Z</time>
      </trkpt>
      <trkpt lat="44.43967" lon="6.13323">
        <ele>1323</ele>
        <time>2017-05-25T23:50:26Z</time>
      </trkpt>
      <trkpt lat="44.4406" lon="6.13323">
        <ele>1296</ele>
        <time>2017-05-25T23:50:46Z</time>
      </trkpt>
      <trkpt lat="44.4405" lon="6.13316">
        <ele>1296</ele>
        <time>2017-05-25T23:51:26Z</time>
      </trkpt>
      <trkpt lat="44.44051" lon="6.13314">
        <ele>1295</ele>
        <time>2017-05-25T23:52:26Z</time>
      </trkpt>
      <trkpt lat="44.4404" lon="6.13311">
        <ele>1297</ele>
        <time>2017-05-25T23:53:06Z</time>
      </trkpt>
      <trkpt lat="44.4401" lon="6.13295">
        <ele>1296</ele>
        <time>2017-05-25T23:53:16Z</time>
      </trkpt>
      <trkpt lat="44.44124" lon="6.13263">
        <ele>1262</ele>
        <time>2017-05-25T23:53:46Z</time>
      </trkpt>
      <trkpt lat="44.44117" lon="6.13223">
        <ele>1251</ele>
        <time>2017-05-25T23:53:56Z</time>
      </trkpt>
      <trkpt lat="44.44179" lon="6.13202">
        <ele>1239</ele>
        <time>2017-05-25T23:54:11Z</time>
      </trkpt>
      <trkpt lat="44.44214" lon="6.13085">
        <ele>1197</ele>
        <time>2017-05-25T23:56:21Z</time>
      </trkpt>
      <trkpt lat="44.44327" lon="6.13079">
        <ele>1170</ele>
        <time>2017-05-25T23:56:51Z</time>
      </trkpt>
      <trkpt lat="44.4437" lon="6.13068">
        <ele>1152</ele>
        <time>2017-05-25T23:57:01Z</time>
      </trkpt>
      <trkpt lat="44.44315" lon="6.12978">
        <ele>1141</ele>
        <time>2017-05-25T23:57:16Z</time>
      </trkpt>
      <trkpt lat="44.44375" lon="6.12998">
        <ele>1135</ele>
        <time>2017-05-25T23:57:26Z</time>
      </trkpt>
      <trkpt lat="44.44523" lon="6.1302">
        <ele>1099</ele>
        <time>2017-05-25T23:58:06Z</time>
      </trkpt>
      <trkpt lat="44.44682" lon="6.13014">
        <ele>1067</ele>
        <time>2017-05-25T23:58:31Z</time>
      </trkpt>
      <trkpt lat="44.44702" lon="6.12989">
        <ele>1063</ele>
        <time>2017-05-25T23:58:46Z</time>
      </trkpt>
      <trkpt lat="44.44736" lon="6.12991">
        <ele>1056</ele>
        <time>2017-05-25T23:59:31Z</time>
      </trkpt>
      <trkpt lat="44.44736" lon="6.12992">
        <ele>1056</ele>
        <time>2017-05-25T23:59:51Z</time>
      </trkpt>
      <trkpt lat="44.44737" lon="6.12996">
        <ele>1056</ele>
        <time>2017-05-26T00:01:26Z</time>
      </trkpt>
      <trkpt lat="44.44737" lon="6.12996">
        <ele>1056</ele>
        <time>2017-05-26T00:01:31Z</time>
      </trkpt>
      <trkpt lat="44.44751" lon="6.13021">
        <ele>1053</ele>
        <time>2017-05-26T00:01:51Z</time>
      </trkpt>
      <trkpt lat="44.44777" lon="6.13027">
        <ele>1048</ele>
        <time>2017-05-26T00:01:56Z</time>
      </trkpt>
      <trkpt lat="44.45045" lon="6.12973">
        <ele>1030</ele>
        <time>2017-05-26T00:02:21Z</time>
      </trkpt>
      <trkpt lat="44.45032" lon="6.13014">
        <ele>1023</ele>
        <time>2017-05-26T00:02:36Z</time>
      </trkpt>
      <trkpt lat="44.44771" lon="6.13174">
        <ele>1004</ele>
        <time>2017-05-26T00:03:11Z</time>
      </trkpt>
      <trkpt lat="44.44794" lon="6.1331">
        <ele>969</ele>
        <time>2017-05-26T00:03:31Z</time>
      </trkpt>
      <trkpt lat="44.4478" lon="6.13332">
        <ele>972</ele>
        <time>2017-05-26T00:03:41Z</time>
      </trkpt>
      <trkpt lat="44.44779" lon="6.13348">
        <ele>971</ele>
        <time>2017-05-26T00:04:11Z</time>
      </trkpt>
      <trkpt lat="44.44788" lon="6.13348">
        <ele>969</ele>
        <time>2017-05-26T00:04:51Z</time>
      </trkpt>
      <trkpt lat="44.44818" lon="6.13358">
        <ele>960</ele>
        <time>2017-05-26T00:05:01Z</time>
      </trkpt>
      <trkpt lat="44.4486" lon="6.13404">
        <ele>949</ele>
        <time>2017-05-26T00:05:51Z</time>
      </trkpt>
      <trkpt lat="44.44896" lon="6.13419">
        <ele>942</ele>
        <time>2017-05-26T00:07:26Z</time>
      </trkpt>
      <trkpt lat="44.44943" lon="6.13515">
        <ele>949</ele>
        <time>2017-05-26T00:07:41Z</time>
      </trkpt>
      <trkpt lat="44.45028" lon="6.13545">
        <ele>941</ele>
        <time>2017-05-26T00:07:56Z</time>
      </trkpt>
      <trkpt lat="44.44995" lon="6.13808">
        <ele>958</ele>
        <time>2017-05-26T00:08:36Z</time>
      </trkpt>
      <trkpt lat="44.45013" lon="6.13837">
        <ele>956</ele>
        <time>2017-05-26T00:08:46Z</time>
      </trkpt>
      <trkpt lat="44.45065" lon="6.13823">
        <ele>950</ele>
        <time>2017-05-26T00:09:41Z</time>
      </trkpt>
      <trkpt lat="44.45142" lon="6.13769">
        <ele>930</ele>
        <time>2017-05-26T00:10:06Z</time>
      </trkpt>
      <trkpt lat="44.45171" lon="6.13766">
        <ele>927</ele>
        <time>2017-05-26T00:10:11Z</time>
      </trkpt>
      <trkpt lat="44.45266" lon="6.13802">
        <ele>936</ele>
        <time>2017-05-26T00:10:51Z</time>
      </trkpt>
      <trkpt lat="44.45265" lon="6.13801">
        <ele>935</ele>
        <time>2017-05-26T00:11:26Z</time>
      </trkpt>
      <trkpt lat="44.45265" lon="6.13801">
        <ele>935</ele>
        <time>2017-05-26T00:11:31Z</time>
      </trkpt>
      <trkpt lat="44.45264" lon="6.138">
        <ele>935</ele>
        <time>2017-05-26T00:11:56Z</time>
      </trkpt>
      <trkpt lat="44.45264" lon="6.13799">
        <ele>935</ele>
        <time>2017-05-26T00:13:51Z</time>
      </trkpt>
      <trkpt lat="44.45264" lon="6.13799">
        <ele>935</ele>
        <time>2017-05-26T00:14:21Z</time>
      </trkpt>
      <trkpt lat="44.45263" lon="6.13801">
        <ele>935</ele>
        <time>2017-05-26T00:14:46Z</time>
      </trkpt>
      <trkpt lat="44.45242" lon="6.13804">
        <ele>938</ele>
        <time>2017-05-26T00:14:51Z</time>
      </trkpt>
      <trkpt lat="44.45167" lon="6.13765">
        <ele>927</ele>
        <time>2017-05-26T00:15:11Z</time>
      </trkpt>
      <trkpt lat="44.45136" lon="6.13768">
        <ele>931</ele>
        <time>2017-05-26T00:15:26Z</time>
      </trkpt>
      <trkpt lat="44.4513" lon="6.13761">
        <ele>929</ele>
        <time>2017-05-26T00:16:46Z</time>
      </trkpt>
      <trkpt lat="44.45132" lon="6.13763">
        <ele>930</ele>
        <time>2017-05-26T00:17:16Z</time>
      </trkpt>
      <trkpt lat="44.45132" lon="6.13765">
        <ele>930</ele>
        <time>2017-05-26T00:17:51Z</time>
      </trkpt>
      <trkpt lat="44.45114" lon="6.13767">
        <ele>933</ele>
        <time>2017-05-26T00:18:31Z</time>
      </trkpt>
      <trkpt lat="44.45108" lon="6.13772">
        <ele>934</ele>
        <time>2017-05-26T00:18:46Z</time>
      </trkpt>
      <trkpt lat="44.4512" lon="6.13773">
        <ele>933</ele>
        <time>2017-05-26T00:19:01Z</time>
      </trkpt>
      <trkpt lat="44.45128" lon="6.13772">
        <ele>933</ele>
        <time>2017-05-26T00:19:26Z</time>
      </trkpt>
      <trkpt lat="44.45128" lon="6.13771">
        <ele>932</ele>
        <time>2017-05-26T00:20:06Z</time>
      </trkpt>
      <trkpt lat="44.45132" lon="6.13772">
        <ele>932</ele>
        <time>2017-05-26T00:20:51Z</time>
      </trkpt>
      <trkpt lat="44.45134" lon="6.13768">
        <ele>931</ele>
        <time>2017-05-26T00:22:21Z</time>
      </trkpt>
      <trkpt lat="44.45133" lon="6.13768">
        <ele>931</ele>
        <time>2017-05-26T00:22:36Z</time>
      </trkpt>
      <trkpt lat="44.45111" lon="6.13772">
        <ele>934</ele>
        <time>2017-05-26T00:22:56Z</time>
      </trkpt>
      <trkpt lat="44.45105" lon="6.13777">
        <ele>936</ele>
        <time>2017-05-26T00:23:11Z</time>
      </trkpt>
      <trkpt lat="44.45089" lon="6.13797">
        <ele>941</ele>
        <time>2017-05-26T00:23:51Z</time>
      </trkpt>
      <trkpt lat="44.45108" lon="6.13775">
        <ele>935</ele>
        <time>2017-05-26T00:25:01Z</time>
      </trkpt>
      <trkpt lat="44.4517" lon="6.13765">
        <ele>926</ele>
        <time>2017-05-26T00:25:16Z</time>
      </trkpt>
      <trkpt lat="44.45241" lon="6.13804">
        <ele>939</ele>
        <time>2017-05-26T00:25:36Z</time>
      </trkpt>
      <trkpt lat="44.45334" lon="6.13793">
        <ele>929</ele>
        <time>2017-05-26T00:26:06Z</time>
      </trkpt>
      <trkpt lat="44.45294" lon="6.13724">
        <ele>901</ele>
        <time>2017-05-26T00:26:31Z</time>
      </trkpt>
      <trkpt lat="44.453" lon="6.13719">
        <ele>899</ele>
        <time>2017-05-26T00:26:46Z</time>
      </trkpt>
      <trkpt lat="44.45369" lon="6.13754">
        <ele>906</ele>
        <time>2017-05-26T00:27:11Z</time>
      </trkpt>
      <trkpt lat="44.45474" lon="6.1379">
        <ele>889</ele>
        <time>2017-05-26T00:27:41Z</time>
      </trkpt>
      <trkpt lat="44.45417" lon="6.13695">
        <ele>871</ele>
        <time>2017-05-26T00:28:06Z</time>
      </trkpt>
      <trkpt lat="44.45411" lon="6.13669">
        <ele>864</ele>
        <time>2017-05-26T00:28:16Z</time>
      </trkpt>
      <trkpt lat="44.45495" lon="6.13704">
        <ele>847</ele>
        <time>2017-05-26T00:28:46Z</time>
      </trkpt>
      <trkpt lat="44.45569" lon="6.13725">
        <ele>826</ele>
        <time>2017-05-26T00:29:11Z</time>
      </trkpt>
      <trkpt lat="44.45632" lon="6.13776">
        <ele>819</ele>
        <time>2017-05-26T00:30:06Z</time>
      </trkpt>
      <trkpt lat="44.45681" lon="6.13804">
        <ele>809</ele>
        <time>2017-05-26T00:30:21Z</time>
      </trkpt>
      <trkpt lat="44.45784" lon="6.13838">
        <ele>786</ele>
        <time>2017-05-26T00:30:46Z</time>
      </trkpt>
      <trkpt lat="44.4575" lon="6.13769">
        <ele>769</ele>
        <time>2017-05-26T00:31:01Z</time>
      </trkpt>
      <trkpt lat="44.45777" lon="6.13752">
        <ele>754</ele>
        <time>2017-05-26T00:31:11Z</time>
      </trkpt>
      <trkpt lat="44.45887" lon="6.13762">
        <ele>732</ele>
        <time>2017-05-26T00:33:01Z</time>
      </trkpt>
      <trkpt lat="44.45887" lon="6.13767">
        <ele>734</ele>
        <time>2017-05-26T00:33:41Z</time>
      </trkpt>
      <trkpt lat="44.45886" lon="6.13761">
        <ele>732</ele>
        <time>2017-05-26T00:34:16Z</time>
      </trkpt>
      <trkpt lat="44.45968" lon="6.13762">
        <ele>718</ele>
        <time>2017-05-26T00:34:56Z</time>
      </trkpt>
      <trkpt lat="44.45963" lon="6.13726">
        <ele>711</ele>
        <time>2017-05-26T00:35:11Z</time>
      </trkpt>
      <trkpt lat="44.46019" lon="6.13718">
        <ele>704</ele>
        <time>2017-05-26T00:36:06Z</time>
      </trkpt>
      <trkpt lat="44.46034" lon="6.13663">
        <ele>698</ele>
        <time>2017-05-26T00:36:21Z</time>
      </trkpt>
      <trkpt lat="44.46149" lon="6.1375">
        <ele>673</ele>
        <time>2017-05-26T00:36:46Z</time>
      </trkpt>
      <trkpt lat="44.46269" lon="6.13769">
        <ele>652</ele>
        <time>2017-05-26T00:37:01Z</time>
      </trkpt>
      <trkpt lat="44.46242" lon="6.13943">
        <ele>646</ele>
        <time>2017-05-26T00:37:16Z</time>
      </trkpt>
      <trkpt lat="44.46095" lon="6.14222">
        <ele>653</ele>
        <time>2017-05-26T00:37:36Z</time>
      </trkpt>
      <trkpt lat="44.461" lon="6.14521">
        <ele>642</ele>
        <time>2017-05-26T00:37:51Z</time>
      </trkpt>
      <trkpt lat="44.46122" lon="6.14863">
        <ele>640</ele>
        <time>2017-05-26T00:38:06Z</time>
      </trkpt>
      <trkpt lat="44.46042" lon="6.15031">
        <ele>642</ele>
        <time>2017-05-26T00:38:16Z</time>
      </trkpt>
      <trkpt lat="44.46025" lon="6.1662">
        <ele>640</ele>
        <time>2017-05-26T00:39:41Z</time>
      </trkpt>
      <trkpt lat="44.45924" lon="6.16979">
        <ele>640</ele>
        <time>2017-05-26T00:39:56Z</time>
      </trkpt>
      <trkpt lat="44.4565" lon="6.17374">
        <ele>644</ele>
        <time>2017-05-26T00:40:21Z</time>
      </trkpt>
      <trkpt lat="44.45607" lon="6.17571">
        <ele>645</ele>
        <time>2017-05-26T00:40:36Z</time>
      </trkpt>
      <trkpt lat="44.45631" lon="6.18253">
        <ele>641</ele>
        <time>2017-05-26T00:41:11Z</time>
      </trkpt>
      <trkpt lat="44.45818" lon="6.19321">
        <ele>640</ele>
        <time>2017-05-26T00:41:51Z</time>
      </trkpt>
      <trkpt lat="44.45839" lon="6.19753">
        <ele>642</ele>
        <time>2017-05-26T00:42:06Z</time>
      </trkpt>
      <trkpt lat="44.46472" lon="6.20047">
        <ele>641</ele>
        <time>2017-05-26T00:42:46Z</time>
      </trkpt>
      <trkpt lat="44.46508" lon="6.20118">
        <ele>644</ele>
        <time>2017-05-26T00:42:56Z</time>
      </trkpt>
      <trkpt lat="44.46237" lon="6.20941">
        <ele>651</ele>
        <time>2017-05-26T00:43:26Z</time>
      </trkpt>
      <trkpt lat="44.46271" lon="6.21249">
        <ele>656</ele>
        <time>2017-05-26T00:43:36Z</time>
      </trkpt>
      <trkpt lat="44.46357" lon="6.21937">
        <ele>658</ele>
        <time>2017-05-26T00:43:56Z</time>
      </trkpt>
      <trkpt lat="44.46395" lon="6.2224">
        <ele>656</ele>
        <time>2017-05-26T00:44:06Z</time>
      </trkpt>
      <trkpt lat="44.46451" lon="6.22718">
        <ele>660</ele>
        <time>2017-05-26T00:44:21Z</time>
      </trkpt>
      <trkpt lat="44.46528" lon="6.2333">
        <ele>666</ele>
        <time>2017-05-26T00:45:01Z</time>
      </trkpt>
      <trkpt lat="44.46611" lon="6.23387">
        <ele>671</ele>
        <time>2017-05-26T00:45:11Z</time>
      </trkpt>
      <trkpt lat="44.46893" lon="6.23421">
        <ele>716</ele>
        <time>2017-05-26T00:45:36Z</time>
      </trkpt>
      <trkpt lat="44.46889" lon="6.23371">
        <ele>712</ele>
        <time>2017-05-26T00:46:21Z</time>
      </trkpt>
      <trkpt lat="44.46892" lon="6.23304">
        <ele>709</ele>
        <time>2017-05-26T00:46:31Z</time>
      </trkpt>
      <trkpt lat="44.469" lon="6.23312">
        <ele>711</ele>
        <time>2017-05-26T00:47:41Z</time>
      </trkpt>
      <trkpt lat="44.46906" lon="6.23307">
        <ele>712</ele>
        <time>2017-05-26T00:47:51Z</time>
      </trkpt>
      <trkpt lat="44.46905" lon="6.23298">
        <ele>712</ele>
        <time>2017-05-26T00:48:01Z</time>
      </trkpt>
      <trkpt lat="44.46901" lon="6.23292">
        <ele>711</ele>
        <time>2017-05-26T00:48:31Z</time>
      </trkpt>
      <trkpt lat="44.46898" lon="6.233">
        <ele>710</ele>
        <time>2017-05-26T00:49:26Z</time>
      </trkpt>
      <trkpt lat="44.46892" lon="6.23299">
        <ele>709</ele>
        <time>2017-05-26T00:50:06Z</time>
      </trkpt>
      <trkpt lat="44.46893" lon="6.23307">
        <ele>709</ele>
        <time>2017-05-26T00:50:31Z</time>
      </trkpt>
      <trkpt lat="44.46907" lon="6.23299">
        <ele>712</ele>
        <time>2017-05-26T00:50:56Z</time>
      </trkpt>
      <trkpt lat="44.46895" lon="6.23307">
        <ele>710</ele>
        <time>2017-05-26T00:51:21Z</time>
      </trkpt>
      <trkpt lat="44.46891" lon="6.23321">
        <ele>710</ele>
        <time>2017-05-26T00:52:01Z</time>
      </trkpt>
      <trkpt lat="44.46898" lon="6.23311">
        <ele>711</ele>
        <time>2017-05-26T00:52:16Z</time>
      </trkpt>
      <trkpt lat="44.46915" lon="6.23301">
        <ele>714</ele>
        <time>2017-05-26T00:53:01Z</time>
      </trkpt>
      <trkpt lat="44.46893" lon="6.23308">
        <ele>710</ele>
        <time>2017-05-26T00:56:26Z</time>
      </trkpt>
      <trkpt lat="44.4689" lon="6.23307">
        <ele>709</ele>
        <time>2017-05-26T00:56:36Z</time>
      </trkpt>
      <trkpt lat="44.46893" lon="6.23299">
        <ele>709</ele>
        <time>2017-05-26T00:57:41Z</time>
      </trkpt>
      <trkpt lat="44.46892" lon="6.23295">
        <ele>709</ele>
        <time>2017-05-26T00:58:11Z</time>
      </trkpt>
      <trkpt lat="44.46891" lon="6.23299">
        <ele>709</ele>
        <time>2017-05-26T00:58:36Z</time>
      </trkpt>
      <trkpt lat="44.46893" lon="6.23313">
        <ele>710</ele>
        <time>2017-05-26T00:59:21Z</time>
      </trkpt>
      <trkpt lat="44.46882" lon="6.23312">
        <ele>707</ele>
        <time>2017-05-26T00:59:46Z</time>
      </trkpt>
      <trkpt lat="44.4689" lon="6.23314">
        <ele>709</ele>
        <time>2017-05-26T01:00:11Z</time>
      </trkpt>
      <trkpt lat="44.46893" lon="6.23307">
        <ele>709</ele>
        <time>2017-05-26T01:00:41Z</time>
      </trkpt>
      <trkpt lat="44.46899" lon="6.23304">
        <ele>711</ele>
        <time>2017-05-26T01:01:46Z</time>
      </trkpt>
      <trkpt lat="44.46903" lon="6.23301">
        <ele>711</ele>
        <time>2017-05-26T01:01:56Z</time>
      </trkpt>
      <trkpt lat="44.469" lon="6.23303">
        <ele>711</ele>
        <time>2017-05-26T01:02:26Z</time>
      </trkpt>
      <trkpt lat="44.46898" lon="6.23299">
        <ele>710</ele>
        <time>2017-05-26T01:03:01Z</time>
      </trkpt>
      <trkpt lat="44.46902" lon="6.23302">
        <ele>711</ele>
        <time>2017-05-26T01:03:41Z</time>
      </trkpt>
      <trkpt lat="44.46896" lon="6.23302">
        <ele>710</ele>
        <time>2017-05-26T01:03:56Z</time>
      </trkpt>
      <trkpt lat="44.46894" lon="6.23303">
        <ele>710</ele>
        <time>2017-05-26T01:04:36Z</time>
      </trkpt>
      <trkpt lat="44.469" lon="6.233">
        <ele>711</ele>
        <time>2017-05-26T01:05:01Z</time>
      </trkpt>
      <trkpt lat="44.46903" lon="6.23287">
        <ele>711</ele>
        <time>2017-05-26T01:05:41Z</time>
      </trkpt>
      <trkpt lat="44.46899" lon="6.23289">
        <ele>710</ele>
        <time>2017-05-26T01:06:21Z</time>
      </trkpt>
      <trkpt lat="44.46894" lon="6.23293">
        <ele>709</ele>
        <time>2017-05-26T01:06:36Z</time>
      </trkpt>
      <trkpt lat="44.46903" lon="6.23298">
        <ele>711</ele>
        <time>2017-05-26T01:07:01Z</time>
      </trkpt>
      <trkpt lat="44.46906" lon="6.23306">
        <ele>706</ele>
        <time>2017-05-26T01:07:16Z</time>
      </trkpt>
      <trkpt lat="44.46911" lon="6.23309">
        <ele>713</ele>
        <time>2017-05-26T01:07:46Z</time>
      </trkpt>
      <trkpt lat="44.46912" lon="6.23299">
        <ele>713</ele>
        <time>2017-05-26T01:08:21Z</time>
      </trkpt>
      <trkpt lat="44.46906" lon="6.233">
        <ele>712</ele>
        <time>2017-05-26T01:09:06Z</time>
      </trkpt>
      <trkpt lat="44.46907" lon="6.23299">
        <ele>712</ele>
        <time>2017-05-26T01:09:46Z</time>
      </trkpt>
      <trkpt lat="44.46907" lon="6.23294">
        <ele>712</ele>
        <time>2017-05-26T01:10:01Z</time>
      </trkpt>
      <trkpt lat="44.46902" lon="6.23299">
        <ele>711</ele>
        <time>2017-05-26T01:10:26Z</time>
      </trkpt>
      <trkpt lat="44.46906" lon="6.23296">
        <ele>712</ele>
        <time>2017-05-26T01:10:41Z</time>
      </trkpt>
      <trkpt lat="44.46904" lon="6.23304">
        <ele>712</ele>
        <time>2017-05-26T01:11:46Z</time>
      </trkpt>
      <trkpt lat="44.4691" lon="6.2329">
        <ele>712</ele>
        <time>2017-05-26T01:12:21Z</time>
      </trkpt>
      <trkpt lat="44.46914" lon="6.23293">
        <ele>713</ele>
        <time>2017-05-26T01:12:51Z</time>
      </trkpt>
      <trkpt lat="44.46898" lon="6.23298">
        <ele>710</ele>
        <time>2017-05-26T01:13:46Z</time>
      </trkpt>
      <trkpt lat="44.46904" lon="6.23298">
        <ele>711</ele>
        <time>2017-05-26T01:13:56Z</time>
      </trkpt>
      <trkpt lat="44.46901" lon="6.23307">
        <ele>711</ele>
        <time>2017-05-26T01:14:51Z</time>
      </trkpt>
      <trkpt lat="44.469" lon="6.23308">
        <ele>711</ele>
        <time>2017-05-26T01:15:16Z</time>
      </trkpt>
      <trkpt lat="44.46898" lon="6.23303">
        <ele>710</ele>
        <time>2017-05-26T01:15:56Z</time>
      </trkpt>
      <trkpt lat="44.46894" lon="6.23306">
        <ele>710</ele>
        <time>2017-05-26T01:16:26Z</time>
      </trkpt>
      <trkpt lat="44.46897" lon="6.23309">
        <ele>710</ele>
        <time>2017-05-26T01:16:36Z</time>
      </trkpt>
      <trkpt lat="44.46894" lon="6.23302">
        <ele>710</ele>
        <time>2017-05-26T01:17:56Z</time>
      </trkpt>
      <trkpt lat="44.46908" lon="6.23309">
        <ele>713</ele>
        <time>2017-05-26T01:18:01Z</time>
      </trkpt>
      <trkpt lat="44.46921" lon="6.23323">
        <ele>716</ele>
        <time>2017-05-26T01:18:31Z</time>
      </trkpt>
      <trkpt lat="44.46912" lon="6.23314">
        <ele>714</ele>
        <time>2017-05-26T01:18:46Z</time>
      </trkpt>
      <trkpt lat="44.46917" lon="6.23316">
        <ele>715</ele>
        <time>2017-05-26T01:19:26Z</time>
      </trkpt>
      <trkpt lat="44.46916" lon="6.23321">
        <ele>715</ele>
        <time>2017-05-26T01:20:11Z</time>
      </trkpt>
      <trkpt lat="44.46917" lon="6.23325">
        <ele>716</ele>
        <time>2017-05-26T01:20:21Z</time>
      </trkpt>
      <trkpt lat="44.46919" lon="6.23325">
        <ele>716</ele>
        <time>2017-05-26T01:20:51Z</time>
      </trkpt>
      <trkpt lat="44.46917" lon="6.2332">
        <ele>715</ele>
        <time>2017-05-26T01:21:11Z</time>
      </trkpt>
      <trkpt lat="44.46917" lon="6.23322">
        <ele>715</ele>
        <time>2017-05-26T01:21:16Z</time>
      </trkpt>
      <trkpt lat="44.46912" lon="6.23315">
        <ele>714</ele>
        <time>2017-05-26T01:22:11Z</time>
      </trkpt>
      <trkpt lat="44.46908" lon="6.23314">
        <ele>713</ele>
        <time>2017-05-26T01:22:46Z</time>
      </trkpt>
      <trkpt lat="44.46901" lon="6.23308">
        <ele>711</ele>
        <time>2017-05-26T01:23:56Z</time>
      </trkpt>
      <trkpt lat="44.46903" lon="6.23305">
        <ele>712</ele>
        <time>2017-05-26T01:24:31Z</time>
      </trkpt>
      <trkpt lat="44.46898" lon="6.23298">
        <ele>710</ele>
        <time>2017-05-26T01:24:51Z</time>
      </trkpt>
      <trkpt lat="44.46905" lon="6.23301">
        <ele>712</ele>
        <time>2017-05-26T01:25:11Z</time>
      </trkpt>
      <trkpt lat="44.46899" lon="6.23296">
        <ele>710</ele>
        <time>2017-05-26T01:25:56Z</time>
      </trkpt>
      <trkpt lat="44.46905" lon="6.23297">
        <ele>712</ele>
        <time>2017-05-26T01:26:31Z</time>
      </trkpt>
      <trkpt lat="44.46902" lon="6.23295">
        <ele>711</ele>
        <time>2017-05-26T01:26:46Z</time>
      </trkpt>
      <trkpt lat="44.46899" lon="6.23303">
        <ele>711</ele>
        <time>2017-05-26T01:27:16Z</time>
      </trkpt>
      <trkpt lat="44.46896" lon="6.23295">
        <ele>710</ele>
        <time>2017-05-26T01:28:06Z</time>
      </trkpt>
      <trkpt lat="44.46899" lon="6.23297">
        <ele>710</ele>
        <time>2017-05-26T01:28:21Z</time>
      </trkpt>
      <trkpt lat="44.46892" lon="6.2329">
        <ele>709</ele>
        <time>2017-05-26T01:28:51Z</time>
      </trkpt>
      <trkpt lat="44.46897" lon="6.23301">
        <ele>710</ele>
        <time>2017-05-26T01:29:56Z</time>
      </trkpt>
      <trkpt lat="44.4688" lon="6.23266">
        <ele>705</ele>
        <time>2017-05-26T01:30:31Z</time>
      </trkpt>
      <trkpt lat="44.46885" lon="6.23269">
        <ele>707</ele>
        <time>2017-05-26T01:30:46Z</time>
      </trkpt>
      <trkpt lat="44.46895" lon="6.23285">
        <ele>709</ele>
        <time>2017-05-26T01:31:56Z</time>
      </trkpt>
      <trkpt lat="44.46896" lon="6.23283">
        <ele>709</ele>
        <time>2017-05-26T01:32:06Z</time>
      </trkpt>
      <trkpt lat="44.46896" lon="6.23275">
        <ele>709</ele>
        <time>2017-05-26T01:32:36Z</time>
      </trkpt>
      <trkpt lat="44.46892" lon="6.23269">
        <ele>708</ele>
        <time>2017-05-26T01:33:11Z</time>
      </trkpt>
      <trkpt lat="44.46882" lon="6.23273">
        <ele>706</ele>
        <time>2017-05-26T01:33:41Z</time>
      </trkpt>
      <trkpt lat="44.46887" lon="6.23283">
        <ele>707</ele>
        <time>2017-05-26T01:34:06Z</time>
      </trkpt>
      <trkpt lat="44.46903" lon="6.23304">
        <ele>711</ele>
        <time>2017-05-26T01:34:46Z</time>
      </trkpt>
      <trkpt lat="44.46899" lon="6.23302">
        <ele>711</ele>
        <time>2017-05-26T01:35:26Z</time>
      </trkpt>
      <trkpt lat="44.46904" lon="6.23312">
        <ele>712</ele>
        <time>2017-05-26T01:35:51Z</time>
      </trkpt>
      <trkpt lat="44.46907" lon="6.2331">
        <ele>713</ele>
        <time>2017-05-26T01:36:06Z</time>
      </trkpt>
      <trkpt lat="44.46905" lon="6.23298">
        <ele>712</ele>
        <time>2017-05-26T01:37:01Z</time>
      </trkpt>
      <trkpt lat="44.46904" lon="6.23299">
        <ele>711</ele>
        <time>2017-05-26T01:37:56Z</time>
      </trkpt>
      <trkpt lat="44.469" lon="6.23295">
        <ele>710</ele>
        <time>2017-05-26T01:38:31Z</time>
      </trkpt>
      <trkpt lat="44.46907" lon="6.23298">
        <ele>712</ele>
        <time>2017-05-26T01:38:51Z</time>
      </trkpt>
      <trkpt lat="44.46902" lon="6.2329">
        <ele>711</ele>
        <time>2017-05-26T01:39:11Z</time>
      </trkpt>
      <trkpt lat="44.46906" lon="6.23299">
        <ele>712</ele>
        <time>2017-05-26T01:39:41Z</time>
      </trkpt>
      <trkpt lat="44.46902" lon="6.23298">
        <ele>711</ele>
        <time>2017-05-26T01:40:11Z</time>
      </trkpt>
      <trkpt lat="44.46904" lon="6.23303">
        <ele>712</ele>
        <time>2017-05-26T01:40:36Z</time>
      </trkpt>
      <trkpt lat="44.4691" lon="6.2331">
        <ele>713</ele>
        <time>2017-05-26T01:41:01Z</time>
      </trkpt>
      <trkpt lat="44.4692" lon="6.23315">
        <ele>716</ele>
        <time>2017-05-26T01:41:31Z</time>
      </trkpt>
      <trkpt lat="44.4691" lon="6.23299">
        <ele>713</ele>
        <time>2017-05-26T01:42:11Z</time>
      </trkpt>
      <trkpt lat="44.46905" lon="6.23294">
        <ele>712</ele>
        <time>2017-05-26T01:42:21Z</time>
      </trkpt>
      <trkpt lat="44.46894" lon="6.23285">
        <ele>709</ele>
        <time>2017-05-26T01:43:11Z</time>
      </trkpt>
      <trkpt lat="44.46898" lon="6.23288">
        <ele>710</ele>
        <time>2017-05-26T01:43:26Z</time>
      </trkpt>
      <trkpt lat="44.46908" lon="6.23296">
        <ele>712</ele>
        <time>2017-05-26T01:44:06Z</time>
      </trkpt>
      <trkpt lat="44.46903" lon="6.23294">
        <ele>711</ele>
        <time>2017-05-26T01:44:31Z</time>
      </trkpt>
      <trkpt lat="44.46905" lon="6.23305">
        <ele>712</ele>
        <time>2017-05-26T01:45:26Z</time>
      </trkpt>
      <trkpt lat="44.46903" lon="6.23306">
        <ele>712</ele>
        <time>2017-05-26T01:45:36Z</time>
      </trkpt>
      <trkpt lat="44.46896" lon="6.23297">
        <ele>710</ele>
        <time>2017-05-26T01:46:16Z</time>
      </trkpt>
      <trkpt lat="44.46894" lon="6.23298">
        <ele>709</ele>
        <time>2017-05-26T01:46:36Z</time>
      </trkpt>
      <trkpt lat="44.46884" lon="6.2329">
        <ele>707</ele>
        <time>2017-05-26T01:47:11Z</time>
      </trkpt>
      <trkpt lat="44.469" lon="6.23305">
        <ele>711</ele>
        <time>2017-05-26T01:47:41Z</time>
      </trkpt>
      <trkpt lat="44.46905" lon="6.2331">
        <ele>712</ele>
        <time>2017-05-26T01:47:56Z</time>
      </trkpt>
      <trkpt lat="44.46901" lon="6.23299">
        <ele>711</ele>
        <time>2017-05-26T01:48:46Z</time>
      </trkpt>
      <trkpt lat="44.46907" lon="6.23308">
        <ele>712</ele>
        <time>2017-05-26T01:49:16Z</time>
      </trkpt>
      <trkpt lat="44.46905" lon="6.23311">
        <ele>712</ele>
        <time>2017-05-26T01:50:16Z</time>
      </trkpt>
      <trkpt lat="44.46908" lon="6.23309">
        <ele>713</ele>
        <time>2017-05-26T01:50:46Z</time>
      </trkpt>
      <trkpt lat="44.469" lon="6.233">
        <ele>711</ele>
        <time>2017-05-26T01:51:01Z</time>
      </trkpt>
      <trkpt lat="44.46911" lon="6.23306">
        <ele>713</ele>
        <time>2017-05-26T01:51:36Z</time>
      </trkpt>
      <trkpt lat="44.46907" lon="6.233">
        <ele>712</ele>
        <time>2017-05-26T01:51:51Z</time>
      </trkpt>
      <trkpt lat="44.46903" lon="6.23296">
        <ele>711</ele>
        <time>2017-05-26T01:52:21Z</time>
      </trkpt>
      <trkpt lat="44.46891" lon="6.23277">
        <ele>708</ele>
        <time>2017-05-26T01:53:01Z</time>
      </trkpt>
      <trkpt lat="44.46898" lon="6.23287">
        <ele>710</ele>
        <time>2017-05-26T01:53:16Z</time>
      </trkpt>
      <trkpt lat="44.46905" lon="6.23295">
        <ele>712</ele>
        <time>2017-05-26T01:54:16Z</time>
      </trkpt>
      <trkpt lat="44.46911" lon="6.2331">
        <ele>713</ele>
        <time>2017-05-26T01:54:46Z</time>
      </trkpt>
      <trkpt lat="44.46916" lon="6.23317">
        <ele>715</ele>
        <time>2017-05-26T01:54:56Z</time>
      </trkpt>
      <trkpt lat="44.46911" lon="6.23317">
        <ele>714</ele>
        <time>2017-05-26T01:55:16Z</time>
      </trkpt>
      <trkpt lat="44.46899" lon="6.23306">
        <ele>711</ele>
        <time>2017-05-26T01:55:36Z</time>
      </trkpt>
      <trkpt lat="44.46892" lon="6.23297">
        <ele>709</ele>
        <time>2017-05-26T01:56:21Z</time>
      </trkpt>
      <trkpt lat="44.469" lon="6.23301">
        <ele>711</ele>
        <time>2017-05-26T01:57:36Z</time>
      </trkpt>
      <trkpt lat="44.46893" lon="6.23296">
        <ele>709</ele>
        <time>2017-05-26T01:58:06Z</time>
      </trkpt>
      <trkpt lat="44.4689" lon="6.23299">
        <ele>709</ele>
        <time>2017-05-26T01:58:31Z</time>
      </trkpt>
      <trkpt lat="44.46904" lon="6.23296">
        <ele>711</ele>
        <time>2017-05-26T01:59:01Z</time>
      </trkpt>
      <trkpt lat="44.46892" lon="6.23283">
        <ele>708</ele>
        <time>2017-05-26T01:59:26Z</time>
      </trkpt>
      <trkpt lat="44.46893" lon="6.23282">
        <ele>709</ele>
        <time>2017-05-26T01:59:51Z</time>
      </trkpt>
      <trkpt lat="44.46893" lon="6.23284">
        <ele>709</ele>
        <time>2017-05-26T02:00:06Z</time>
      </trkpt>
      <trkpt lat="44.46896" lon="6.23292">
        <ele>710</ele>
        <time>2017-05-26T02:01:01Z</time>
      </trkpt>
      <trkpt lat="44.46892" lon="6.23299">
        <ele>709</ele>
        <time>2017-05-26T02:01:36Z</time>
      </trkpt>
      <trkpt lat="44.46888" lon="6.23296">
        <ele>708</ele>
        <time>2017-05-26T02:01:51Z</time>
      </trkpt>
      <trkpt lat="44.46892" lon="6.23299">
        <ele>709</ele>
        <time>2017-05-26T02:02:16Z</time>
      </trkpt>
      <trkpt lat="44.469" lon="6.23301">
        <ele>711</ele>
        <time>2017-05-26T02:02:36Z</time>
      </trkpt>
      <trkpt lat="44.46899" lon="6.23294">
        <ele>710</ele>
        <time>2017-05-26T02:03:41Z</time>
      </trkpt>
      <trkpt lat="44.46903" lon="6.23295">
        <ele>711</ele>
        <time>2017-05-26T02:04:06Z</time>
      </trkpt>
      <trkpt lat="44.46896" lon="6.23297">
        <ele>710</ele>
        <time>2017-05-26T02:04:56Z</time>
      </trkpt>
      <trkpt lat="44.469" lon="6.23299">
        <ele>711</ele>
        <time>2017-05-26T02:05:11Z</time>
      </trkpt>
      <trkpt lat="44.46915" lon="6.23324">
        <ele>715</ele>
        <time>2017-05-26T02:06:06Z</time>
      </trkpt>
      <trkpt lat="44.4691" lon="6.23318">
        <ele>714</ele>
        <time>2017-05-26T02:06:31Z</time>
      </trkpt>
      <trkpt lat="44.4691" lon="6.23301">
        <ele>713</ele>
        <time>2017-05-26T02:07:26Z</time>
      </trkpt>
      <trkpt lat="44.4691" lon="6.23304">
        <ele>713</ele>
        <time>2017-05-26T02:08:21Z</time>
      </trkpt>
      <trkpt lat="44.46901" lon="6.23291">
        <ele>711</ele>
        <time>2017-05-26T02:08:46Z</time>
      </trkpt>
      <trkpt lat="44.46896" lon="6.23288">
        <ele>709</ele>
        <time>2017-05-26T02:09:01Z</time>
      </trkpt>
      <trkpt lat="44.46902" lon="6.23295">
        <ele>711</ele>
        <time>2017-05-26T02:09:26Z</time>
      </trkpt>
      <trkpt lat="44.46899" lon="6.23296">
        <ele>710</ele>
        <time>2017-05-26T02:10:21Z</time>
      </trkpt>
      <trkpt lat="44.46899" lon="6.23298">
        <ele>710</ele>
        <time>2017-05-26T02:10:31Z</time>
      </trkpt>
      <trkpt lat="44.46892" lon="6.23297">
        <ele>709</ele>
        <time>2017-05-26T02:11:11Z</time>
      </trkpt>
      <trkpt lat="44.46891" lon="6.23298">
        <ele>709</ele>
        <time>2017-05-26T02:11:26Z</time>
      </trkpt>
      <trkpt lat="44.46885" lon="6.23293">
        <ele>707</ele>
        <time>2017-05-26T02:12:06Z</time>
      </trkpt>
      <trkpt lat="44.4689" lon="6.23298">
        <ele>709</ele>
        <time>2017-05-26T02:12:46Z</time>
      </trkpt>
      <trkpt lat="44.46899" lon="6.23301">
        <ele>711</ele>
        <time>2017-05-26T02:13:36Z</time>
      </trkpt>
      <trkpt lat="44.46896" lon="6.23293">
        <ele>710</ele>
        <time>2017-05-26T02:14:01Z</time>
      </trkpt>
      <trkpt lat="44.46892" lon="6.23298">
        <ele>709</ele>
        <time>2017-05-26T02:14:46Z</time>
      </trkpt>
      <trkpt lat="44.46903" lon="6.23309">
        <ele>712</ele>
        <time>2017-05-26T02:15:26Z</time>
      </trkpt>
      <trkpt lat="44.46898" lon="6.23304">
        <ele>710</ele>
        <time>2017-05-26T02:15:36Z</time>
      </trkpt>
      <trkpt lat="44.46887" lon="6.23296">
        <ele>708</ele>
        <time>2017-05-26T02:16:21Z</time>
      </trkpt>
      <trkpt lat="44.46885" lon="6.23301">
        <ele>708</ele>
        <time>2017-05-26T02:17:11Z</time>
      </trkpt>
      <trkpt lat="44.4688" lon="6.23297">
        <ele>706</ele>
        <time>2017-05-26T02:17:41Z</time>
      </trkpt>
      <trkpt lat="44.46889" lon="6.23316">
        <ele>709</ele>
        <time>2017-05-26T02:18:31Z</time>
      </trkpt>
      <trkpt lat="44.46892" lon="6.23329">
        <ele>710</ele>
        <time>2017-05-26T02:18:46Z</time>
      </trkpt>
      <trkpt lat="44.46887" lon="6.23323">
        <ele>709</ele>
        <time>2017-05-26T02:18:56Z</time>
      </trkpt>
      <trkpt lat="44.46878" lon="6.23307">
        <ele>706</ele>
        <time>2017-05-26T02:19:11Z</time>
      </trkpt>
      <trkpt lat="44.46881" lon="6.23302">
        <ele>707</ele>
        <time>2017-05-26T02:19:21Z</time>
      </trkpt>
      <trkpt lat="44.46908" lon="6.23323">
        <ele>713</ele>
        <time>2017-05-26T02:20:06Z</time>
      </trkpt>
      <trkpt lat="44.46906" lon="6.23318">
        <ele>713</ele>
        <time>2017-05-26T02:20:21Z</time>
      </trkpt>
      <trkpt lat="44.46906" lon="6.23303">
        <ele>712</ele>
        <time>2017-05-26T02:21:41Z</time>
      </trkpt>
      <trkpt lat="44.46908" lon="6.23299">
        <ele>712</ele>
        <time>2017-05-26T02:22:06Z</time>
      </trkpt>
      <trkpt lat="44.46906" lon="6.23296">
        <ele>712</ele>
        <time>2017-05-26T02:22:41Z</time>
      </trkpt>
      <trkpt lat="44.46905" lon="6.23297">
        <ele>712</ele>
        <time>2017-05-26T02:23:01Z</time>
      </trkpt>
      <trkpt lat="44.46906" lon="6.23306">
        <ele>712</ele>
        <time>2017-05-26T02:23:36Z</time>
      </trkpt>
      <trkpt lat="44.46897" lon="6.23292">
        <ele>710</ele>
        <time>2017-05-26T02:24:21Z</time>
      </trkpt>
      <trkpt lat="44.46889" lon="6.2329">
        <ele>708</ele>
        <time>2017-05-26T02:24:41Z</time>
      </trkpt>
      <trkpt lat="44.4689" lon="6.2329">
        <ele>708</ele>
        <time>2017-05-26T02:24:46Z</time>
      </trkpt>
      <trkpt lat="44.46895" lon="6.23293">
        <ele>709</ele>
        <time>2017-05-26T02:25:21Z</time>
      </trkpt>
      <trkpt lat="44.46898" lon="6.23271">
        <ele>709</ele>
        <time>2017-05-26T02:25:51Z</time>
      </trkpt>
      <trkpt lat="44.469" lon="6.23267">
        <ele>709</ele>
        <time>2017-05-26T02:26:06Z</time>
      </trkpt>
      <trkpt lat="44.469" lon="6.23269">
        <ele>709</ele>
        <time>2017-05-26T02:26:16Z</time>
      </trkpt>
      <trkpt lat="44.469" lon="6.23274">
        <ele>710</ele>
        <time>2017-05-26T02:26:41Z</time>
      </trkpt>
      <trkpt lat="44.46899" lon="6.23276">
        <ele>710</ele>
        <time>2017-05-26T02:26:46Z</time>
      </trkpt>
      <trkpt lat="44.46897" lon="6.23287">
        <ele>710</ele>
        <time>2017-05-26T02:27:21Z</time>
      </trkpt>
      <trkpt lat="44.46898" lon="6.2329">
        <ele>710</ele>
        <time>2017-05-26T02:27:41Z</time>
      </trkpt>
      <trkpt lat="44.46905" lon="6.23296">
        <ele>712</ele>
        <time>2017-05-26T02:28:06Z</time>
      </trkpt>
      <trkpt lat="44.46899" lon="6.23298">
        <ele>711</ele>
        <time>2017-05-26T02:28:46Z</time>
      </trkpt>
      <trkpt lat="44.46903" lon="6.23303">
        <ele>712</ele>
        <time>2017-05-26T02:29:26Z</time>
      </trkpt>
      <trkpt lat="44.46898" lon="6.23297">
        <ele>710</ele>
        <time>2017-05-26T02:29:51Z</time>
      </trkpt>
      <trkpt lat="44.46896" lon="6.23299">
        <ele>710</ele>
        <time>2017-05-26T02:30:21Z</time>
      </trkpt>
      <trkpt lat="44.46897" lon="6.23297">
        <ele>710</ele>
        <time>2017-05-26T02:31:01Z</time>
      </trkpt>
      <trkpt lat="44.4689" lon="6.23294">
        <ele>708</ele>
        <time>2017-05-26T02:31:36Z</time>
      </trkpt>
      <trkpt lat="44.46882" lon="6.23285">
        <ele>706</ele>
        <time>2017-05-26T02:32:16Z</time>
      </trkpt>
      <trkpt lat="44.46886" lon="6.23291">
        <ele>707</ele>
        <time>2017-05-26T02:33:01Z</time>
      </trkpt>
      <trkpt lat="44.46887" lon="6.23298">
        <ele>708</ele>
        <time>2017-05-26T02:33:51Z</time>
      </trkpt>
      <trkpt lat="44.46884" lon="6.23299">
        <ele>707</ele>
        <time>2017-05-26T02:34:16Z</time>
      </trkpt>
      <trkpt lat="44.46878" lon="6.23295">
        <ele>706</ele>
        <time>2017-05-26T02:35:01Z</time>
      </trkpt>
      <trkpt lat="44.46879" lon="6.23293">
        <ele>706</ele>
        <time>2017-05-26T02:35:21Z</time>
      </trkpt>
      <trkpt lat="44.4689" lon="6.23302">
        <ele>709</ele>
        <time>2017-05-26T02:35:41Z</time>
      </trkpt>
      <trkpt lat="44.4689" lon="6.23295">
        <ele>708</ele>
        <time>2017-05-26T02:36:06Z</time>
      </trkpt>
      <trkpt lat="44.46887" lon="6.2329">
        <ele>708</ele>
        <time>2017-05-26T02:36:58Z</time>
      </trkpt>
    </trkseg>
  </trk>
</gpx>